<?xml version="1.0" encoding="UTF-8" standalone="no" ?>
<gpx xmlns="http://www.topografix.com/GPX/1/1" xmlns:xsi="http://www.w3.org/2001/XMLSchema-instance" xsi:schemaLocation="http://www.topografix.com/GPX/1/1 http://www.topografix.com/GPX/1/1/gpx.xsd" version="1.1" creator="VisuGPX - https://www.visugpx.com">
  <metadata>
    <name>Locronan/Bois du Duc 21 AVR 2016</name>
  </metadata>
  <trk>
    <name><![CDATA[Locronan/Bois du Duc 21 AVR 2016]]></name>
    <trkseg>
      <trkpt lat="48.09735" lon="-4.21293">
        <ele>140.49</ele>
        <time>2016-04-21T11:52:31Z</time>
      </trkpt>
      <trkpt lat="48.09761" lon="-4.21273">
        <ele>155.87</ele>
        <time>2016-04-21T11:53:04Z</time>
      </trkpt>
      <trkpt lat="48.09764" lon="-4.2127">
        <ele>160.68</ele>
        <time>2016-04-21T11:53:39Z</time>
      </trkpt>
      <trkpt lat="48.09765" lon="-4.21271">
        <ele>161.16</ele>
        <time>2016-04-21T11:53:47Z</time>
      </trkpt>
      <trkpt lat="48.09766" lon="-4.2127">
        <ele>160.2</ele>
        <time>2016-04-21T11:53:59Z</time>
      </trkpt>
      <trkpt lat="48.09767" lon="-4.21271">
        <ele>159.24</ele>
        <time>2016-04-21T11:54:21Z</time>
      </trkpt>
      <trkpt lat="48.09765" lon="-4.21271">
        <ele>157.79</ele>
        <time>2016-04-21T11:54:36Z</time>
      </trkpt>
      <trkpt lat="48.09766" lon="-4.2127">
        <ele>156.83</ele>
        <time>2016-04-21T11:54:47Z</time>
      </trkpt>
      <trkpt lat="48.09767" lon="-4.2127">
        <ele>156.83</ele>
        <time>2016-04-21T11:55:08Z</time>
      </trkpt>
      <trkpt lat="48.09767" lon="-4.2127">
        <ele>156.35</ele>
        <time>2016-04-21T11:55:10Z</time>
      </trkpt>
      <trkpt lat="48.09766" lon="-4.21268">
        <ele>156.83</ele>
        <time>2016-04-21T11:55:24Z</time>
      </trkpt>
      <trkpt lat="48.09765" lon="-4.21267">
        <ele>156.35</ele>
        <time>2016-04-21T11:55:38Z</time>
      </trkpt>
      <trkpt lat="48.09766" lon="-4.21266">
        <ele>156.35</ele>
        <time>2016-04-21T11:55:54Z</time>
      </trkpt>
      <trkpt lat="48.09767" lon="-4.21268">
        <ele>154.43</ele>
        <time>2016-04-21T11:56:03Z</time>
      </trkpt>
      <trkpt lat="48.09768" lon="-4.21265">
        <ele>152.51</ele>
        <time>2016-04-21T11:56:16Z</time>
      </trkpt>
      <trkpt lat="48.09771" lon="-4.21261">
        <ele>151.54</ele>
        <time>2016-04-21T11:56:21Z</time>
      </trkpt>
      <trkpt lat="48.09772" lon="-4.21258">
        <ele>151.54</ele>
        <time>2016-04-21T11:56:36Z</time>
      </trkpt>
      <trkpt lat="48.0978" lon="-4.21253">
        <ele>150.58</ele>
        <time>2016-04-21T11:56:46Z</time>
      </trkpt>
      <trkpt lat="48.09786" lon="-4.21247">
        <ele>152.03</ele>
        <time>2016-04-21T11:56:51Z</time>
      </trkpt>
      <trkpt lat="48.09789" lon="-4.21232">
        <ele>152.03</ele>
        <time>2016-04-21T11:57:00Z</time>
      </trkpt>
      <trkpt lat="48.09788" lon="-4.21221">
        <ele>151.54</ele>
        <time>2016-04-21T11:57:10Z</time>
      </trkpt>
      <trkpt lat="48.0979" lon="-4.21207">
        <ele>152.51</ele>
        <time>2016-04-21T11:57:19Z</time>
      </trkpt>
      <trkpt lat="48.09791" lon="-4.2118">
        <ele>150.1</ele>
        <time>2016-04-21T11:57:35Z</time>
      </trkpt>
      <trkpt lat="48.09793" lon="-4.21154">
        <ele>145.3</ele>
        <time>2016-04-21T11:57:50Z</time>
      </trkpt>
      <trkpt lat="48.09795" lon="-4.21125">
        <ele>145.78</ele>
        <time>2016-04-21T11:58:05Z</time>
      </trkpt>
      <trkpt lat="48.09798" lon="-4.21107">
        <ele>146.26</ele>
        <time>2016-04-21T11:58:17Z</time>
      </trkpt>
      <trkpt lat="48.09799" lon="-4.21092">
        <ele>147.7</ele>
        <time>2016-04-21T11:58:25Z</time>
      </trkpt>
      <trkpt lat="48.09798" lon="-4.21084">
        <ele>148.18</ele>
        <time>2016-04-21T11:58:29Z</time>
      </trkpt>
      <trkpt lat="48.09797" lon="-4.21056">
        <ele>149.14</ele>
        <time>2016-04-21T11:58:45Z</time>
      </trkpt>
      <trkpt lat="48.09799" lon="-4.21029">
        <ele>148.66</ele>
        <time>2016-04-21T11:59:00Z</time>
      </trkpt>
      <trkpt lat="48.09801" lon="-4.21007">
        <ele>149.62</ele>
        <time>2016-04-21T11:59:14Z</time>
      </trkpt>
      <trkpt lat="48.09801" lon="-4.21">
        <ele>150.1</ele>
        <time>2016-04-21T11:59:18Z</time>
      </trkpt>
      <trkpt lat="48.09803" lon="-4.20975">
        <ele>149.62</ele>
        <time>2016-04-21T11:59:34Z</time>
      </trkpt>
      <trkpt lat="48.09808" lon="-4.20957">
        <ele>147.22</ele>
        <time>2016-04-21T11:59:45Z</time>
      </trkpt>
      <trkpt lat="48.09811" lon="-4.20929">
        <ele>146.74</ele>
        <time>2016-04-21T12:00:00Z</time>
      </trkpt>
      <trkpt lat="48.09812" lon="-4.20927">
        <ele>146.74</ele>
        <time>2016-04-21T12:00:01Z</time>
      </trkpt>
      <trkpt lat="48.09812" lon="-4.2092">
        <ele>146.26</ele>
        <time>2016-04-21T12:00:05Z</time>
      </trkpt>
      <trkpt lat="48.09814" lon="-4.20907">
        <ele>145.3</ele>
        <time>2016-04-21T12:00:12Z</time>
      </trkpt>
      <trkpt lat="48.09817" lon="-4.20885">
        <ele>143.85</ele>
        <time>2016-04-21T12:00:28Z</time>
      </trkpt>
      <trkpt lat="48.0982" lon="-4.20863">
        <ele>139.53</ele>
        <time>2016-04-21T12:00:43Z</time>
      </trkpt>
      <trkpt lat="48.09824" lon="-4.20853">
        <ele>137.61</ele>
        <time>2016-04-21T12:00:58Z</time>
      </trkpt>
      <trkpt lat="48.09836" lon="-4.20832">
        <ele>136.16</ele>
        <time>2016-04-21T12:01:14Z</time>
      </trkpt>
      <trkpt lat="48.09839" lon="-4.20832">
        <ele>135.68</ele>
        <time>2016-04-21T12:01:16Z</time>
      </trkpt>
      <trkpt lat="48.09856" lon="-4.20833">
        <ele>134.24</ele>
        <time>2016-04-21T12:01:34Z</time>
      </trkpt>
      <trkpt lat="48.09866" lon="-4.20831">
        <ele>130.4</ele>
        <time>2016-04-21T12:01:47Z</time>
      </trkpt>
      <trkpt lat="48.09871" lon="-4.20835">
        <ele>128.47</ele>
        <time>2016-04-21T12:01:52Z</time>
      </trkpt>
      <trkpt lat="48.09896" lon="-4.20837">
        <ele>131.36</ele>
        <time>2016-04-21T12:02:07Z</time>
      </trkpt>
      <trkpt lat="48.09899" lon="-4.20853">
        <ele>132.32</ele>
        <time>2016-04-21T12:02:15Z</time>
      </trkpt>
      <trkpt lat="48.09905" lon="-4.20867">
        <ele>133.28</ele>
        <time>2016-04-21T12:02:28Z</time>
      </trkpt>
      <trkpt lat="48.09908" lon="-4.20875">
        <ele>132.8</ele>
        <time>2016-04-21T12:02:34Z</time>
      </trkpt>
      <trkpt lat="48.0992" lon="-4.20887">
        <ele>129.92</ele>
        <time>2016-04-21T12:02:48Z</time>
      </trkpt>
      <trkpt lat="48.09925" lon="-4.20893">
        <ele>129.92</ele>
        <time>2016-04-21T12:02:55Z</time>
      </trkpt>
      <trkpt lat="48.09941" lon="-4.20903">
        <ele>127.51</ele>
        <time>2016-04-21T12:03:12Z</time>
      </trkpt>
      <trkpt lat="48.09957" lon="-4.20913">
        <ele>123.67</ele>
        <time>2016-04-21T12:03:30Z</time>
      </trkpt>
      <trkpt lat="48.09958" lon="-4.20922">
        <ele>125.59</ele>
        <time>2016-04-21T12:03:45Z</time>
      </trkpt>
      <trkpt lat="48.09968" lon="-4.20933">
        <ele>122.22</ele>
        <time>2016-04-21T12:04:01Z</time>
      </trkpt>
      <trkpt lat="48.09986" lon="-4.20943">
        <ele>120.78</ele>
        <time>2016-04-21T12:04:13Z</time>
      </trkpt>
      <trkpt lat="48.10003" lon="-4.20948">
        <ele>123.67</ele>
        <time>2016-04-21T12:04:28Z</time>
      </trkpt>
      <trkpt lat="48.10024" lon="-4.20966">
        <ele>124.63</ele>
        <time>2016-04-21T12:04:49Z</time>
      </trkpt>
      <trkpt lat="48.10026" lon="-4.20981">
        <ele>121.74</ele>
        <time>2016-04-21T12:05:01Z</time>
      </trkpt>
      <trkpt lat="48.10025" lon="-4.20993">
        <ele>119.82</ele>
        <time>2016-04-21T12:05:09Z</time>
      </trkpt>
      <trkpt lat="48.10025" lon="-4.21012">
        <ele>117.9</ele>
        <time>2016-04-21T12:05:20Z</time>
      </trkpt>
      <trkpt lat="48.10025" lon="-4.21026">
        <ele>115.98</ele>
        <time>2016-04-21T12:05:34Z</time>
      </trkpt>
      <trkpt lat="48.10028" lon="-4.21042">
        <ele>115.5</ele>
        <time>2016-04-21T12:05:47Z</time>
      </trkpt>
      <trkpt lat="48.10035" lon="-4.21056">
        <ele>115.98</ele>
        <time>2016-04-21T12:05:59Z</time>
      </trkpt>
      <trkpt lat="48.10043" lon="-4.21071">
        <ele>115.5</ele>
        <time>2016-04-21T12:06:12Z</time>
      </trkpt>
      <trkpt lat="48.10046" lon="-4.21082">
        <ele>115.5</ele>
        <time>2016-04-21T12:06:22Z</time>
      </trkpt>
      <trkpt lat="48.10053" lon="-4.211">
        <ele>113.09</ele>
        <time>2016-04-21T12:06:33Z</time>
      </trkpt>
      <trkpt lat="48.10055" lon="-4.21104">
        <ele>113.09</ele>
        <time>2016-04-21T12:06:36Z</time>
      </trkpt>
      <trkpt lat="48.10056" lon="-4.21107">
        <ele>113.09</ele>
        <time>2016-04-21T12:06:38Z</time>
      </trkpt>
      <trkpt lat="48.10062" lon="-4.21124">
        <ele>113.57</ele>
        <time>2016-04-21T12:06:50Z</time>
      </trkpt>
      <trkpt lat="48.10064" lon="-4.21128">
        <ele>113.57</ele>
        <time>2016-04-21T12:06:54Z</time>
      </trkpt>
      <trkpt lat="48.10073" lon="-4.21149">
        <ele>111.65</ele>
        <time>2016-04-21T12:07:08Z</time>
      </trkpt>
      <trkpt lat="48.10086" lon="-4.21166">
        <ele>107.32</ele>
        <time>2016-04-21T12:07:22Z</time>
      </trkpt>
      <trkpt lat="48.10093" lon="-4.21174">
        <ele>104.92</ele>
        <time>2016-04-21T12:07:36Z</time>
      </trkpt>
      <trkpt lat="48.101" lon="-4.21189">
        <ele>106.36</ele>
        <time>2016-04-21T12:07:54Z</time>
      </trkpt>
      <trkpt lat="48.10109" lon="-4.21195">
        <ele>105.88</ele>
        <time>2016-04-21T12:08:08Z</time>
      </trkpt>
      <trkpt lat="48.10121" lon="-4.21205">
        <ele>105.4</ele>
        <time>2016-04-21T12:08:26Z</time>
      </trkpt>
      <trkpt lat="48.10145" lon="-4.21216">
        <ele>103.96</ele>
        <time>2016-04-21T12:08:43Z</time>
      </trkpt>
      <trkpt lat="48.10155" lon="-4.21222">
        <ele>103</ele>
        <time>2016-04-21T12:08:54Z</time>
      </trkpt>
      <trkpt lat="48.10168" lon="-4.21231">
        <ele>103.48</ele>
        <time>2016-04-21T12:09:04Z</time>
      </trkpt>
      <trkpt lat="48.10171" lon="-4.21239">
        <ele>103.48</ele>
        <time>2016-04-21T12:09:12Z</time>
      </trkpt>
      <trkpt lat="48.10171" lon="-4.21255">
        <ele>102.52</ele>
        <time>2016-04-21T12:09:23Z</time>
      </trkpt>
      <trkpt lat="48.10169" lon="-4.2127">
        <ele>101.56</ele>
        <time>2016-04-21T12:09:33Z</time>
      </trkpt>
      <trkpt lat="48.10168" lon="-4.21274">
        <ele>102.04</ele>
        <time>2016-04-21T12:09:35Z</time>
      </trkpt>
      <trkpt lat="48.10169" lon="-4.21281">
        <ele>102.52</ele>
        <time>2016-04-21T12:09:39Z</time>
      </trkpt>
      <trkpt lat="48.10163" lon="-4.21305">
        <ele>104.44</ele>
        <time>2016-04-21T12:09:53Z</time>
      </trkpt>
      <trkpt lat="48.10157" lon="-4.21326">
        <ele>103.48</ele>
        <time>2016-04-21T12:10:06Z</time>
      </trkpt>
      <trkpt lat="48.10154" lon="-4.21344">
        <ele>102.04</ele>
        <time>2016-04-21T12:10:20Z</time>
      </trkpt>
      <trkpt lat="48.10154" lon="-4.21366">
        <ele>99.63</ele>
        <time>2016-04-21T12:10:31Z</time>
      </trkpt>
      <trkpt lat="48.1016" lon="-4.21394">
        <ele>96.27</ele>
        <time>2016-04-21T12:10:49Z</time>
      </trkpt>
      <trkpt lat="48.10172" lon="-4.21402">
        <ele>95.79</ele>
        <time>2016-04-21T12:11:03Z</time>
      </trkpt>
      <trkpt lat="48.10185" lon="-4.21406">
        <ele>94.83</ele>
        <time>2016-04-21T12:11:16Z</time>
      </trkpt>
      <trkpt lat="48.10197" lon="-4.2141">
        <ele>96.75</ele>
        <time>2016-04-21T12:11:30Z</time>
      </trkpt>
      <trkpt lat="48.10213" lon="-4.21418">
        <ele>99.15</ele>
        <time>2016-04-21T12:11:45Z</time>
      </trkpt>
      <trkpt lat="48.10232" lon="-4.21432">
        <ele>98.19</ele>
        <time>2016-04-21T12:12:01Z</time>
      </trkpt>
      <trkpt lat="48.1025" lon="-4.2144">
        <ele>97.23</ele>
        <time>2016-04-21T12:12:16Z</time>
      </trkpt>
      <trkpt lat="48.10265" lon="-4.21446">
        <ele>96.27</ele>
        <time>2016-04-21T12:12:32Z</time>
      </trkpt>
      <trkpt lat="48.10276" lon="-4.2145">
        <ele>97.71</ele>
        <time>2016-04-21T12:12:48Z</time>
      </trkpt>
      <trkpt lat="48.10295" lon="-4.21456">
        <ele>96.75</ele>
        <time>2016-04-21T12:13:03Z</time>
      </trkpt>
      <trkpt lat="48.10316" lon="-4.21465">
        <ele>93.39</ele>
        <time>2016-04-21T12:13:18Z</time>
      </trkpt>
      <trkpt lat="48.10338" lon="-4.21473">
        <ele>91.46</ele>
        <time>2016-04-21T12:13:36Z</time>
      </trkpt>
      <trkpt lat="48.10352" lon="-4.21475">
        <ele>92.42</ele>
        <time>2016-04-21T12:13:51Z</time>
      </trkpt>
      <trkpt lat="48.1036" lon="-4.21476">
        <ele>92.42</ele>
        <time>2016-04-21T12:14:07Z</time>
      </trkpt>
      <trkpt lat="48.1037" lon="-4.2148">
        <ele>90.98</ele>
        <time>2016-04-21T12:14:20Z</time>
      </trkpt>
      <trkpt lat="48.10386" lon="-4.21484">
        <ele>86.66</ele>
        <time>2016-04-21T12:14:30Z</time>
      </trkpt>
      <trkpt lat="48.10414" lon="-4.21487">
        <ele>82.33</ele>
        <time>2016-04-21T12:14:45Z</time>
      </trkpt>
      <trkpt lat="48.1044" lon="-4.21493">
        <ele>79.45</ele>
        <time>2016-04-21T12:15:03Z</time>
      </trkpt>
      <trkpt lat="48.10461" lon="-4.215">
        <ele>79.45</ele>
        <time>2016-04-21T12:15:15Z</time>
      </trkpt>
      <trkpt lat="48.1047" lon="-4.21487">
        <ele>79.45</ele>
        <time>2016-04-21T12:15:30Z</time>
      </trkpt>
      <trkpt lat="48.10475" lon="-4.21474">
        <ele>77.04</ele>
        <time>2016-04-21T12:15:47Z</time>
      </trkpt>
      <trkpt lat="48.10479" lon="-4.21455">
        <ele>74.64</ele>
        <time>2016-04-21T12:16:01Z</time>
      </trkpt>
      <trkpt lat="48.10484" lon="-4.21434">
        <ele>73.68</ele>
        <time>2016-04-21T12:16:15Z</time>
      </trkpt>
      <trkpt lat="48.10488" lon="-4.2142">
        <ele>73.68</ele>
        <time>2016-04-21T12:16:21Z</time>
      </trkpt>
      <trkpt lat="48.10493" lon="-4.21374">
        <ele>74.16</ele>
        <time>2016-04-21T12:16:38Z</time>
      </trkpt>
      <trkpt lat="48.10493" lon="-4.21336">
        <ele>76.56</ele>
        <time>2016-04-21T12:16:55Z</time>
      </trkpt>
      <trkpt lat="48.10493" lon="-4.21322">
        <ele>76.08</ele>
        <time>2016-04-21T12:17:03Z</time>
      </trkpt>
      <trkpt lat="48.10494" lon="-4.213">
        <ele>76.08</ele>
        <time>2016-04-21T12:17:15Z</time>
      </trkpt>
      <trkpt lat="48.10493" lon="-4.21271">
        <ele>75.6</ele>
        <time>2016-04-21T12:17:29Z</time>
      </trkpt>
      <trkpt lat="48.10494" lon="-4.21262">
        <ele>75.6</ele>
        <time>2016-04-21T12:17:34Z</time>
      </trkpt>
      <trkpt lat="48.10493" lon="-4.21248">
        <ele>75.6</ele>
        <time>2016-04-21T12:17:42Z</time>
      </trkpt>
      <trkpt lat="48.10492" lon="-4.21243">
        <ele>75.12</ele>
        <time>2016-04-21T12:17:45Z</time>
      </trkpt>
      <trkpt lat="48.10491" lon="-4.21219">
        <ele>74.16</ele>
        <time>2016-04-21T12:17:58Z</time>
      </trkpt>
      <trkpt lat="48.10491" lon="-4.21216">
        <ele>73.68</ele>
        <time>2016-04-21T12:18:00Z</time>
      </trkpt>
      <trkpt lat="48.10491" lon="-4.21201">
        <ele>73.68</ele>
        <time>2016-04-21T12:18:08Z</time>
      </trkpt>
      <trkpt lat="48.10491" lon="-4.21193">
        <ele>73.68</ele>
        <time>2016-04-21T12:18:12Z</time>
      </trkpt>
      <trkpt lat="48.1049" lon="-4.21176">
        <ele>72.72</ele>
        <time>2016-04-21T12:18:21Z</time>
      </trkpt>
      <trkpt lat="48.10487" lon="-4.21149">
        <ele>73.2</ele>
        <time>2016-04-21T12:18:35Z</time>
      </trkpt>
      <trkpt lat="48.10486" lon="-4.21145">
        <ele>73.2</ele>
        <time>2016-04-21T12:18:37Z</time>
      </trkpt>
      <trkpt lat="48.10486" lon="-4.21139">
        <ele>73.2</ele>
        <time>2016-04-21T12:18:40Z</time>
      </trkpt>
      <trkpt lat="48.10484" lon="-4.21118">
        <ele>74.64</ele>
        <time>2016-04-21T12:18:53Z</time>
      </trkpt>
      <trkpt lat="48.10482" lon="-4.21093">
        <ele>73.68</ele>
        <time>2016-04-21T12:19:07Z</time>
      </trkpt>
      <trkpt lat="48.1048" lon="-4.21066">
        <ele>75.12</ele>
        <time>2016-04-21T12:19:20Z</time>
      </trkpt>
      <trkpt lat="48.10477" lon="-4.21037">
        <ele>76.08</ele>
        <time>2016-04-21T12:19:36Z</time>
      </trkpt>
      <trkpt lat="48.10477" lon="-4.21027">
        <ele>75.12</ele>
        <time>2016-04-21T12:19:42Z</time>
      </trkpt>
      <trkpt lat="48.10477" lon="-4.21021">
        <ele>75.12</ele>
        <time>2016-04-21T12:19:46Z</time>
      </trkpt>
      <trkpt lat="48.10484" lon="-4.21002">
        <ele>75.12</ele>
        <time>2016-04-21T12:19:58Z</time>
      </trkpt>
      <trkpt lat="48.10506" lon="-4.21001">
        <ele>75.6</ele>
        <time>2016-04-21T12:20:17Z</time>
      </trkpt>
      <trkpt lat="48.10515" lon="-4.21001">
        <ele>77.52</ele>
        <time>2016-04-21T12:20:25Z</time>
      </trkpt>
      <trkpt lat="48.10529" lon="-4.21002">
        <ele>81.37</ele>
        <time>2016-04-21T12:20:38Z</time>
      </trkpt>
      <trkpt lat="48.10543" lon="-4.21002">
        <ele>82.33</ele>
        <time>2016-04-21T12:20:50Z</time>
      </trkpt>
      <trkpt lat="48.1055" lon="-4.21001">
        <ele>82.33</ele>
        <time>2016-04-21T12:20:54Z</time>
      </trkpt>
      <trkpt lat="48.10557" lon="-4.21001">
        <ele>82.81</ele>
        <time>2016-04-21T12:21:00Z</time>
      </trkpt>
      <trkpt lat="48.10563" lon="-4.21002">
        <ele>83.77</ele>
        <time>2016-04-21T12:21:05Z</time>
      </trkpt>
      <trkpt lat="48.10566" lon="-4.21001">
        <ele>84.25</ele>
        <time>2016-04-21T12:21:08Z</time>
      </trkpt>
      <trkpt lat="48.10582" lon="-4.21004">
        <ele>86.66</ele>
        <time>2016-04-21T12:21:21Z</time>
      </trkpt>
      <trkpt lat="48.10593" lon="-4.21008">
        <ele>87.14</ele>
        <time>2016-04-21T12:21:32Z</time>
      </trkpt>
      <trkpt lat="48.10606" lon="-4.21012">
        <ele>88.1</ele>
        <time>2016-04-21T12:21:43Z</time>
      </trkpt>
      <trkpt lat="48.10609" lon="-4.21014">
        <ele>88.58</ele>
        <time>2016-04-21T12:21:46Z</time>
      </trkpt>
      <trkpt lat="48.10611" lon="-4.21014">
        <ele>89.06</ele>
        <time>2016-04-21T12:21:48Z</time>
      </trkpt>
      <trkpt lat="48.10615" lon="-4.21016">
        <ele>89.06</ele>
        <time>2016-04-21T12:21:51Z</time>
      </trkpt>
      <trkpt lat="48.10621" lon="-4.21018">
        <ele>90.02</ele>
        <time>2016-04-21T12:21:57Z</time>
      </trkpt>
      <trkpt lat="48.10624" lon="-4.2102">
        <ele>90.5</ele>
        <time>2016-04-21T12:22:00Z</time>
      </trkpt>
      <trkpt lat="48.10627" lon="-4.21021">
        <ele>90.98</ele>
        <time>2016-04-21T12:22:02Z</time>
      </trkpt>
      <trkpt lat="48.10633" lon="-4.21024">
        <ele>91.46</ele>
        <time>2016-04-21T12:22:07Z</time>
      </trkpt>
      <trkpt lat="48.10636" lon="-4.21026">
        <ele>91.94</ele>
        <time>2016-04-21T12:22:10Z</time>
      </trkpt>
      <trkpt lat="48.10647" lon="-4.21029">
        <ele>92.9</ele>
        <time>2016-04-21T12:22:20Z</time>
      </trkpt>
      <trkpt lat="48.10651" lon="-4.21031">
        <ele>92.42</ele>
        <time>2016-04-21T12:22:24Z</time>
      </trkpt>
      <trkpt lat="48.10654" lon="-4.21031">
        <ele>92.42</ele>
        <time>2016-04-21T12:22:27Z</time>
      </trkpt>
      <trkpt lat="48.10656" lon="-4.21032">
        <ele>91.94</ele>
        <time>2016-04-21T12:22:29Z</time>
      </trkpt>
      <trkpt lat="48.1066" lon="-4.21033">
        <ele>91.94</ele>
        <time>2016-04-21T12:22:32Z</time>
      </trkpt>
      <trkpt lat="48.10668" lon="-4.21038">
        <ele>91.46</ele>
        <time>2016-04-21T12:22:40Z</time>
      </trkpt>
      <trkpt lat="48.10675" lon="-4.21041">
        <ele>91.94</ele>
        <time>2016-04-21T12:22:45Z</time>
      </trkpt>
      <trkpt lat="48.10677" lon="-4.21042">
        <ele>92.42</ele>
        <time>2016-04-21T12:22:47Z</time>
      </trkpt>
      <trkpt lat="48.10692" lon="-4.21049">
        <ele>93.39</ele>
        <time>2016-04-21T12:23:00Z</time>
      </trkpt>
      <trkpt lat="48.10702" lon="-4.21053">
        <ele>93.39</ele>
        <time>2016-04-21T12:23:09Z</time>
      </trkpt>
      <trkpt lat="48.10704" lon="-4.21053">
        <ele>93.39</ele>
        <time>2016-04-21T12:23:11Z</time>
      </trkpt>
      <trkpt lat="48.10707" lon="-4.21054">
        <ele>92.9</ele>
        <time>2016-04-21T12:23:14Z</time>
      </trkpt>
      <trkpt lat="48.10711" lon="-4.21053">
        <ele>92.9</ele>
        <time>2016-04-21T12:23:18Z</time>
      </trkpt>
      <trkpt lat="48.10716" lon="-4.21047">
        <ele>92.9</ele>
        <time>2016-04-21T12:23:23Z</time>
      </trkpt>
      <trkpt lat="48.10718" lon="-4.21023">
        <ele>94.35</ele>
        <time>2016-04-21T12:23:38Z</time>
      </trkpt>
      <trkpt lat="48.1072" lon="-4.21001">
        <ele>94.83</ele>
        <time>2016-04-21T12:23:52Z</time>
      </trkpt>
      <trkpt lat="48.10721" lon="-4.20976">
        <ele>93.39</ele>
        <time>2016-04-21T12:24:07Z</time>
      </trkpt>
      <trkpt lat="48.1072" lon="-4.20961">
        <ele>91.94</ele>
        <time>2016-04-21T12:24:15Z</time>
      </trkpt>
      <trkpt lat="48.10722" lon="-4.20948">
        <ele>90.5</ele>
        <time>2016-04-21T12:24:23Z</time>
      </trkpt>
      <trkpt lat="48.1072" lon="-4.20923">
        <ele>88.1</ele>
        <time>2016-04-21T12:24:38Z</time>
      </trkpt>
      <trkpt lat="48.10721" lon="-4.20897">
        <ele>86.66</ele>
        <time>2016-04-21T12:24:54Z</time>
      </trkpt>
      <trkpt lat="48.10722" lon="-4.20873">
        <ele>85.69</ele>
        <time>2016-04-21T12:25:07Z</time>
      </trkpt>
      <trkpt lat="48.10721" lon="-4.20851">
        <ele>86.18</ele>
        <time>2016-04-21T12:25:20Z</time>
      </trkpt>
      <trkpt lat="48.1072" lon="-4.2084">
        <ele>86.18</ele>
        <time>2016-04-21T12:25:26Z</time>
      </trkpt>
      <trkpt lat="48.10719" lon="-4.20814">
        <ele>88.58</ele>
        <time>2016-04-21T12:25:41Z</time>
      </trkpt>
      <trkpt lat="48.10718" lon="-4.20792">
        <ele>89.54</ele>
        <time>2016-04-21T12:25:53Z</time>
      </trkpt>
      <trkpt lat="48.10716" lon="-4.20769">
        <ele>91.46</ele>
        <time>2016-04-21T12:26:05Z</time>
      </trkpt>
      <trkpt lat="48.10713" lon="-4.20742">
        <ele>92.42</ele>
        <time>2016-04-21T12:26:20Z</time>
      </trkpt>
      <trkpt lat="48.10712" lon="-4.20726">
        <ele>92.9</ele>
        <time>2016-04-21T12:26:29Z</time>
      </trkpt>
      <trkpt lat="48.10709" lon="-4.207">
        <ele>92.42</ele>
        <time>2016-04-21T12:26:43Z</time>
      </trkpt>
      <trkpt lat="48.10705" lon="-4.20673">
        <ele>94.83</ele>
        <time>2016-04-21T12:26:57Z</time>
      </trkpt>
      <trkpt lat="48.10705" lon="-4.20671">
        <ele>95.31</ele>
        <time>2016-04-21T12:26:58Z</time>
      </trkpt>
      <trkpt lat="48.10703" lon="-4.20646">
        <ele>97.71</ele>
        <time>2016-04-21T12:27:12Z</time>
      </trkpt>
      <trkpt lat="48.107" lon="-4.20627">
        <ele>98.19</ele>
        <time>2016-04-21T12:27:22Z</time>
      </trkpt>
      <trkpt lat="48.107" lon="-4.20624">
        <ele>98.19</ele>
        <time>2016-04-21T12:27:24Z</time>
      </trkpt>
      <trkpt lat="48.10697" lon="-4.20591">
        <ele>100.11</ele>
        <time>2016-04-21T12:27:41Z</time>
      </trkpt>
      <trkpt lat="48.10697" lon="-4.20583">
        <ele>100.6</ele>
        <time>2016-04-21T12:27:46Z</time>
      </trkpt>
      <trkpt lat="48.10697" lon="-4.20558">
        <ele>100.6</ele>
        <time>2016-04-21T12:28:00Z</time>
      </trkpt>
      <trkpt lat="48.10697" lon="-4.20554">
        <ele>100.11</ele>
        <time>2016-04-21T12:28:02Z</time>
      </trkpt>
      <trkpt lat="48.10696" lon="-4.20533">
        <ele>101.08</ele>
        <time>2016-04-21T12:28:15Z</time>
      </trkpt>
      <trkpt lat="48.10695" lon="-4.20509">
        <ele>102.52</ele>
        <time>2016-04-21T12:28:28Z</time>
      </trkpt>
      <trkpt lat="48.10694" lon="-4.20497">
        <ele>103.48</ele>
        <time>2016-04-21T12:28:35Z</time>
      </trkpt>
      <trkpt lat="48.10693" lon="-4.20489">
        <ele>103.48</ele>
        <time>2016-04-21T12:28:39Z</time>
      </trkpt>
      <trkpt lat="48.1069" lon="-4.20463">
        <ele>104.44</ele>
        <time>2016-04-21T12:28:53Z</time>
      </trkpt>
      <trkpt lat="48.10689" lon="-4.20449">
        <ele>105.4</ele>
        <time>2016-04-21T12:29:00Z</time>
      </trkpt>
      <trkpt lat="48.10688" lon="-4.2044">
        <ele>105.4</ele>
        <time>2016-04-21T12:29:05Z</time>
      </trkpt>
      <trkpt lat="48.10686" lon="-4.20427">
        <ele>104.92</ele>
        <time>2016-04-21T12:29:12Z</time>
      </trkpt>
      <trkpt lat="48.10686" lon="-4.2042">
        <ele>105.4</ele>
        <time>2016-04-21T12:29:16Z</time>
      </trkpt>
      <trkpt lat="48.10684" lon="-4.20394">
        <ele>104.92</ele>
        <time>2016-04-21T12:29:31Z</time>
      </trkpt>
      <trkpt lat="48.10684" lon="-4.2039">
        <ele>104.92</ele>
        <time>2016-04-21T12:29:33Z</time>
      </trkpt>
      <trkpt lat="48.10682" lon="-4.20376">
        <ele>104.44</ele>
        <time>2016-04-21T12:29:42Z</time>
      </trkpt>
      <trkpt lat="48.10682" lon="-4.20369">
        <ele>103.96</ele>
        <time>2016-04-21T12:29:47Z</time>
      </trkpt>
      <trkpt lat="48.10677" lon="-4.20345">
        <ele>100.6</ele>
        <time>2016-04-21T12:30:01Z</time>
      </trkpt>
      <trkpt lat="48.10674" lon="-4.20325">
        <ele>99.63</ele>
        <time>2016-04-21T12:30:13Z</time>
      </trkpt>
      <trkpt lat="48.1067" lon="-4.2031">
        <ele>97.23</ele>
        <time>2016-04-21T12:30:24Z</time>
      </trkpt>
      <trkpt lat="48.10668" lon="-4.20297">
        <ele>95.31</ele>
        <time>2016-04-21T12:30:36Z</time>
      </trkpt>
      <trkpt lat="48.10666" lon="-4.20279">
        <ele>93.87</ele>
        <time>2016-04-21T12:30:47Z</time>
      </trkpt>
      <trkpt lat="48.10666" lon="-4.20268">
        <ele>91.46</ele>
        <time>2016-04-21T12:30:55Z</time>
      </trkpt>
      <trkpt lat="48.10664" lon="-4.20243">
        <ele>90.02</ele>
        <time>2016-04-21T12:31:08Z</time>
      </trkpt>
      <trkpt lat="48.10662" lon="-4.2022">
        <ele>89.06</ele>
        <time>2016-04-21T12:31:22Z</time>
      </trkpt>
      <trkpt lat="48.10662" lon="-4.20215">
        <ele>88.58</ele>
        <time>2016-04-21T12:31:25Z</time>
      </trkpt>
      <trkpt lat="48.1066" lon="-4.20184">
        <ele>89.54</ele>
        <time>2016-04-21T12:31:40Z</time>
      </trkpt>
      <trkpt lat="48.1066" lon="-4.2018">
        <ele>89.54</ele>
        <time>2016-04-21T12:31:45Z</time>
      </trkpt>
      <trkpt lat="48.10657" lon="-4.20149">
        <ele>90.5</ele>
        <time>2016-04-21T12:31:59Z</time>
      </trkpt>
      <trkpt lat="48.10655" lon="-4.20139">
        <ele>90.98</ele>
        <time>2016-04-21T12:32:03Z</time>
      </trkpt>
      <trkpt lat="48.10655" lon="-4.20124">
        <ele>91.94</ele>
        <time>2016-04-21T12:32:11Z</time>
      </trkpt>
      <trkpt lat="48.10655" lon="-4.20115">
        <ele>92.9</ele>
        <time>2016-04-21T12:32:17Z</time>
      </trkpt>
      <trkpt lat="48.10656" lon="-4.20106">
        <ele>94.35</ele>
        <time>2016-04-21T12:32:22Z</time>
      </trkpt>
      <trkpt lat="48.10657" lon="-4.20089">
        <ele>95.79</ele>
        <time>2016-04-21T12:32:31Z</time>
      </trkpt>
      <trkpt lat="48.10658" lon="-4.20055">
        <ele>99.15</ele>
        <time>2016-04-21T12:32:48Z</time>
      </trkpt>
      <trkpt lat="48.10658" lon="-4.20051">
        <ele>99.63</ele>
        <time>2016-04-21T12:32:51Z</time>
      </trkpt>
      <trkpt lat="48.10654" lon="-4.20026">
        <ele>98.67</ele>
        <time>2016-04-21T12:33:09Z</time>
      </trkpt>
      <trkpt lat="48.10648" lon="-4.1999">
        <ele>96.75</ele>
        <time>2016-04-21T12:33:28Z</time>
      </trkpt>
      <trkpt lat="48.10643" lon="-4.19967">
        <ele>98.67</ele>
        <time>2016-04-21T12:33:41Z</time>
      </trkpt>
      <trkpt lat="48.10637" lon="-4.19941">
        <ele>97.71</ele>
        <time>2016-04-21T12:33:57Z</time>
      </trkpt>
      <trkpt lat="48.10631" lon="-4.19913">
        <ele>97.23</ele>
        <time>2016-04-21T12:34:12Z</time>
      </trkpt>
      <trkpt lat="48.10628" lon="-4.19898">
        <ele>96.27</ele>
        <time>2016-04-21T12:34:21Z</time>
      </trkpt>
      <trkpt lat="48.10625" lon="-4.19877">
        <ele>95.31</ele>
        <time>2016-04-21T12:34:32Z</time>
      </trkpt>
      <trkpt lat="48.10617" lon="-4.19845">
        <ele>96.27</ele>
        <time>2016-04-21T12:34:49Z</time>
      </trkpt>
      <trkpt lat="48.10609" lon="-4.19821">
        <ele>100.6</ele>
        <time>2016-04-21T12:35:03Z</time>
      </trkpt>
      <trkpt lat="48.10608" lon="-4.1982">
        <ele>101.56</ele>
        <time>2016-04-21T12:35:05Z</time>
      </trkpt>
      <trkpt lat="48.10602" lon="-4.19814">
        <ele>103</ele>
        <time>2016-04-21T12:35:10Z</time>
      </trkpt>
      <trkpt lat="48.10591" lon="-4.1981">
        <ele>104.44</ele>
        <time>2016-04-21T12:35:18Z</time>
      </trkpt>
      <trkpt lat="48.10572" lon="-4.19801">
        <ele>107.32</ele>
        <time>2016-04-21T12:35:34Z</time>
      </trkpt>
      <trkpt lat="48.10554" lon="-4.19798">
        <ele>107.81</ele>
        <time>2016-04-21T12:35:48Z</time>
      </trkpt>
      <trkpt lat="48.10538" lon="-4.19791">
        <ele>109.73</ele>
        <time>2016-04-21T12:36:01Z</time>
      </trkpt>
      <trkpt lat="48.10537" lon="-4.1979">
        <ele>109.73</ele>
        <time>2016-04-21T12:36:02Z</time>
      </trkpt>
      <trkpt lat="48.10521" lon="-4.19786">
        <ele>111.65</ele>
        <time>2016-04-21T12:36:13Z</time>
      </trkpt>
      <trkpt lat="48.10514" lon="-4.19781">
        <ele>112.61</ele>
        <time>2016-04-21T12:36:19Z</time>
      </trkpt>
      <trkpt lat="48.10513" lon="-4.19779">
        <ele>112.61</ele>
        <time>2016-04-21T12:36:21Z</time>
      </trkpt>
      <trkpt lat="48.10511" lon="-4.19756">
        <ele>110.69</ele>
        <time>2016-04-21T12:36:37Z</time>
      </trkpt>
      <trkpt lat="48.10513" lon="-4.19741">
        <ele>107.81</ele>
        <time>2016-04-21T12:36:48Z</time>
      </trkpt>
      <trkpt lat="48.10517" lon="-4.19712">
        <ele>106.36</ele>
        <time>2016-04-21T12:37:02Z</time>
      </trkpt>
      <trkpt lat="48.10522" lon="-4.19685">
        <ele>107.81</ele>
        <time>2016-04-21T12:37:16Z</time>
      </trkpt>
      <trkpt lat="48.1053" lon="-4.19658">
        <ele>112.13</ele>
        <time>2016-04-21T12:37:31Z</time>
      </trkpt>
      <trkpt lat="48.10535" lon="-4.19634">
        <ele>113.09</ele>
        <time>2016-04-21T12:37:45Z</time>
      </trkpt>
      <trkpt lat="48.10543" lon="-4.19612">
        <ele>113.09</ele>
        <time>2016-04-21T12:37:58Z</time>
      </trkpt>
      <trkpt lat="48.10548" lon="-4.19589">
        <ele>110.69</ele>
        <time>2016-04-21T12:38:11Z</time>
      </trkpt>
      <trkpt lat="48.10552" lon="-4.19553">
        <ele>112.61</ele>
        <time>2016-04-21T12:38:24Z</time>
      </trkpt>
      <trkpt lat="48.10559" lon="-4.19524">
        <ele>115.5</ele>
        <time>2016-04-21T12:38:40Z</time>
      </trkpt>
      <trkpt lat="48.10561" lon="-4.19513">
        <ele>115.5</ele>
        <time>2016-04-21T12:38:47Z</time>
      </trkpt>
      <trkpt lat="48.10562" lon="-4.195">
        <ele>116.46</ele>
        <time>2016-04-21T12:38:54Z</time>
      </trkpt>
      <trkpt lat="48.10565" lon="-4.19473">
        <ele>118.38</ele>
        <time>2016-04-21T12:39:07Z</time>
      </trkpt>
      <trkpt lat="48.1057" lon="-4.19443">
        <ele>119.34</ele>
        <time>2016-04-21T12:39:22Z</time>
      </trkpt>
      <trkpt lat="48.10584" lon="-4.1943">
        <ele>118.38</ele>
        <time>2016-04-21T12:39:36Z</time>
      </trkpt>
      <trkpt lat="48.10603" lon="-4.19422">
        <ele>116.46</ele>
        <time>2016-04-21T12:39:52Z</time>
      </trkpt>
      <trkpt lat="48.10606" lon="-4.1942">
        <ele>115.98</ele>
        <time>2016-04-21T12:39:55Z</time>
      </trkpt>
      <trkpt lat="48.10614" lon="-4.194">
        <ele>115.01</ele>
        <time>2016-04-21T12:40:09Z</time>
      </trkpt>
      <trkpt lat="48.10617" lon="-4.19392">
        <ele>114.53</ele>
        <time>2016-04-21T12:40:19Z</time>
      </trkpt>
      <trkpt lat="48.10619" lon="-4.1939">
        <ele>115.01</ele>
        <time>2016-04-21T12:40:21Z</time>
      </trkpt>
      <trkpt lat="48.10626" lon="-4.19377">
        <ele>115.5</ele>
        <time>2016-04-21T12:40:36Z</time>
      </trkpt>
      <trkpt lat="48.10636" lon="-4.19356">
        <ele>115.01</ele>
        <time>2016-04-21T12:40:51Z</time>
      </trkpt>
      <trkpt lat="48.10648" lon="-4.19336">
        <ele>114.53</ele>
        <time>2016-04-21T12:41:07Z</time>
      </trkpt>
      <trkpt lat="48.10655" lon="-4.19314">
        <ele>112.61</ele>
        <time>2016-04-21T12:41:24Z</time>
      </trkpt>
      <trkpt lat="48.10661" lon="-4.19296">
        <ele>111.17</ele>
        <time>2016-04-21T12:41:39Z</time>
      </trkpt>
      <trkpt lat="48.10663" lon="-4.19289">
        <ele>109.73</ele>
        <time>2016-04-21T12:41:59Z</time>
      </trkpt>
      <trkpt lat="48.10664" lon="-4.1928">
        <ele>110.69</ele>
        <time>2016-04-21T12:42:26Z</time>
      </trkpt>
      <trkpt lat="48.10664" lon="-4.19277">
        <ele>110.69</ele>
        <time>2016-04-21T12:42:51Z</time>
      </trkpt>
      <trkpt lat="48.10666" lon="-4.19277">
        <ele>109.25</ele>
        <time>2016-04-21T12:43:14Z</time>
      </trkpt>
      <trkpt lat="48.10667" lon="-4.19275">
        <ele>107.81</ele>
        <time>2016-04-21T12:43:32Z</time>
      </trkpt>
      <trkpt lat="48.10668" lon="-4.19271">
        <ele>106.84</ele>
        <time>2016-04-21T12:43:54Z</time>
      </trkpt>
      <trkpt lat="48.10682" lon="-4.19256">
        <ele>99.63</ele>
        <time>2016-04-21T12:44:11Z</time>
      </trkpt>
      <trkpt lat="48.10704" lon="-4.19241">
        <ele>93.39</ele>
        <time>2016-04-21T12:44:26Z</time>
      </trkpt>
      <trkpt lat="48.10713" lon="-4.19235">
        <ele>91.94</ele>
        <time>2016-04-21T12:44:30Z</time>
      </trkpt>
      <trkpt lat="48.10752" lon="-4.19212">
        <ele>88.58</ele>
        <time>2016-04-21T12:44:48Z</time>
      </trkpt>
      <trkpt lat="48.10763" lon="-4.19199">
        <ele>89.54</ele>
        <time>2016-04-21T12:45:01Z</time>
      </trkpt>
      <trkpt lat="48.10764" lon="-4.19198">
        <ele>90.02</ele>
        <time>2016-04-21T12:45:02Z</time>
      </trkpt>
      <trkpt lat="48.10772" lon="-4.19193">
        <ele>89.54</ele>
        <time>2016-04-21T12:45:09Z</time>
      </trkpt>
      <trkpt lat="48.10789" lon="-4.19198">
        <ele>89.54</ele>
        <time>2016-04-21T12:45:22Z</time>
      </trkpt>
      <trkpt lat="48.10796" lon="-4.19199">
        <ele>90.02</ele>
        <time>2016-04-21T12:45:28Z</time>
      </trkpt>
      <trkpt lat="48.10801" lon="-4.19197">
        <ele>90.02</ele>
        <time>2016-04-21T12:45:32Z</time>
      </trkpt>
      <trkpt lat="48.10805" lon="-4.19185">
        <ele>91.46</ele>
        <time>2016-04-21T12:45:43Z</time>
      </trkpt>
      <trkpt lat="48.10806" lon="-4.19172">
        <ele>89.54</ele>
        <time>2016-04-21T12:45:58Z</time>
      </trkpt>
      <trkpt lat="48.10816" lon="-4.1915">
        <ele>83.77</ele>
        <time>2016-04-21T12:46:11Z</time>
      </trkpt>
      <trkpt lat="48.10822" lon="-4.19143">
        <ele>79.93</ele>
        <time>2016-04-21T12:46:19Z</time>
      </trkpt>
      <trkpt lat="48.10829" lon="-4.19137">
        <ele>77.52</ele>
        <time>2016-04-21T12:46:27Z</time>
      </trkpt>
      <trkpt lat="48.10844" lon="-4.19138">
        <ele>75.6</ele>
        <time>2016-04-21T12:46:38Z</time>
      </trkpt>
      <trkpt lat="48.10856" lon="-4.19139">
        <ele>73.2</ele>
        <time>2016-04-21T12:46:49Z</time>
      </trkpt>
      <trkpt lat="48.10859" lon="-4.1914">
        <ele>72.72</ele>
        <time>2016-04-21T12:46:53Z</time>
      </trkpt>
      <trkpt lat="48.10869" lon="-4.19137">
        <ele>71.76</ele>
        <time>2016-04-21T12:47:04Z</time>
      </trkpt>
      <trkpt lat="48.1088" lon="-4.19132">
        <ele>72.24</ele>
        <time>2016-04-21T12:47:16Z</time>
      </trkpt>
      <trkpt lat="48.10886" lon="-4.1913">
        <ele>73.68</ele>
        <time>2016-04-21T12:47:22Z</time>
      </trkpt>
      <trkpt lat="48.10889" lon="-4.19128">
        <ele>75.12</ele>
        <time>2016-04-21T12:47:25Z</time>
      </trkpt>
      <trkpt lat="48.109" lon="-4.19124">
        <ele>81.37</ele>
        <time>2016-04-21T12:47:30Z</time>
      </trkpt>
      <trkpt lat="48.10903" lon="-4.19118">
        <ele>84.73</ele>
        <time>2016-04-21T12:47:34Z</time>
      </trkpt>
      <trkpt lat="48.10905" lon="-4.1911">
        <ele>86.66</ele>
        <time>2016-04-21T12:47:39Z</time>
      </trkpt>
      <trkpt lat="48.10906" lon="-4.19107">
        <ele>87.14</ele>
        <time>2016-04-21T12:47:41Z</time>
      </trkpt>
      <trkpt lat="48.10906" lon="-4.19098">
        <ele>88.1</ele>
        <time>2016-04-21T12:47:48Z</time>
      </trkpt>
      <trkpt lat="48.10907" lon="-4.19078">
        <ele>90.98</ele>
        <time>2016-04-21T12:47:59Z</time>
      </trkpt>
      <trkpt lat="48.10909" lon="-4.19072">
        <ele>90.98</ele>
        <time>2016-04-21T12:48:03Z</time>
      </trkpt>
      <trkpt lat="48.10908" lon="-4.19052">
        <ele>91.94</ele>
        <time>2016-04-21T12:48:16Z</time>
      </trkpt>
      <trkpt lat="48.10909" lon="-4.19047">
        <ele>92.9</ele>
        <time>2016-04-21T12:48:19Z</time>
      </trkpt>
      <trkpt lat="48.10909" lon="-4.19044">
        <ele>92.9</ele>
        <time>2016-04-21T12:48:21Z</time>
      </trkpt>
      <trkpt lat="48.10909" lon="-4.19034">
        <ele>93.87</ele>
        <time>2016-04-21T12:48:26Z</time>
      </trkpt>
      <trkpt lat="48.1091" lon="-4.19009">
        <ele>96.75</ele>
        <time>2016-04-21T12:48:39Z</time>
      </trkpt>
      <trkpt lat="48.10909" lon="-4.19006">
        <ele>96.75</ele>
        <time>2016-04-21T12:48:41Z</time>
      </trkpt>
      <trkpt lat="48.10911" lon="-4.18982">
        <ele>98.19</ele>
        <time>2016-04-21T12:48:54Z</time>
      </trkpt>
      <trkpt lat="48.1091" lon="-4.18979">
        <ele>98.19</ele>
        <time>2016-04-21T12:48:56Z</time>
      </trkpt>
      <trkpt lat="48.10911" lon="-4.18973">
        <ele>98.67</ele>
        <time>2016-04-21T12:49:00Z</time>
      </trkpt>
      <trkpt lat="48.10912" lon="-4.18957">
        <ele>98.19</ele>
        <time>2016-04-21T12:49:09Z</time>
      </trkpt>
      <trkpt lat="48.10912" lon="-4.18952">
        <ele>98.19</ele>
        <time>2016-04-21T12:49:12Z</time>
      </trkpt>
      <trkpt lat="48.10914" lon="-4.18938">
        <ele>98.67</ele>
        <time>2016-04-21T12:49:20Z</time>
      </trkpt>
      <trkpt lat="48.10914" lon="-4.18925">
        <ele>98.67</ele>
        <time>2016-04-21T12:49:27Z</time>
      </trkpt>
      <trkpt lat="48.10914" lon="-4.18894">
        <ele>99.63</ele>
        <time>2016-04-21T12:49:43Z</time>
      </trkpt>
      <trkpt lat="48.10915" lon="-4.18874">
        <ele>100.6</ele>
        <time>2016-04-21T12:49:54Z</time>
      </trkpt>
      <trkpt lat="48.10918" lon="-4.18869">
        <ele>100.6</ele>
        <time>2016-04-21T12:49:58Z</time>
      </trkpt>
      <trkpt lat="48.10919" lon="-4.18866">
        <ele>100.6</ele>
        <time>2016-04-21T12:50:00Z</time>
      </trkpt>
      <trkpt lat="48.10924" lon="-4.18862">
        <ele>100.6</ele>
        <time>2016-04-21T12:50:05Z</time>
      </trkpt>
      <trkpt lat="48.1094" lon="-4.18857">
        <ele>103</ele>
        <time>2016-04-21T12:50:20Z</time>
      </trkpt>
      <trkpt lat="48.10945" lon="-4.18856">
        <ele>103.96</ele>
        <time>2016-04-21T12:50:24Z</time>
      </trkpt>
      <trkpt lat="48.10962" lon="-4.18853">
        <ele>104.44</ele>
        <time>2016-04-21T12:50:38Z</time>
      </trkpt>
      <trkpt lat="48.1097" lon="-4.1885">
        <ele>105.4</ele>
        <time>2016-04-21T12:50:46Z</time>
      </trkpt>
      <trkpt lat="48.10988" lon="-4.18847">
        <ele>106.84</ele>
        <time>2016-04-21T12:51:01Z</time>
      </trkpt>
      <trkpt lat="48.11" lon="-4.18842">
        <ele>106.84</ele>
        <time>2016-04-21T12:51:12Z</time>
      </trkpt>
      <trkpt lat="48.11017" lon="-4.18838">
        <ele>106.84</ele>
        <time>2016-04-21T12:51:27Z</time>
      </trkpt>
      <trkpt lat="48.11025" lon="-4.18835">
        <ele>106.84</ele>
        <time>2016-04-21T12:51:34Z</time>
      </trkpt>
      <trkpt lat="48.11032" lon="-4.18834">
        <ele>107.32</ele>
        <time>2016-04-21T12:51:41Z</time>
      </trkpt>
      <trkpt lat="48.11047" lon="-4.1883">
        <ele>106.36</ele>
        <time>2016-04-21T12:51:56Z</time>
      </trkpt>
      <trkpt lat="48.11062" lon="-4.18826">
        <ele>104.92</ele>
        <time>2016-04-21T12:52:10Z</time>
      </trkpt>
      <trkpt lat="48.11079" lon="-4.18823">
        <ele>105.4</ele>
        <time>2016-04-21T12:52:24Z</time>
      </trkpt>
      <trkpt lat="48.11083" lon="-4.18823">
        <ele>105.4</ele>
        <time>2016-04-21T12:52:27Z</time>
      </trkpt>
      <trkpt lat="48.11088" lon="-4.18821">
        <ele>105.88</ele>
        <time>2016-04-21T12:52:31Z</time>
      </trkpt>
      <trkpt lat="48.11091" lon="-4.18821">
        <ele>105.88</ele>
        <time>2016-04-21T12:52:33Z</time>
      </trkpt>
      <trkpt lat="48.11109" lon="-4.18818">
        <ele>108.77</ele>
        <time>2016-04-21T12:52:47Z</time>
      </trkpt>
      <trkpt lat="48.11118" lon="-4.18815">
        <ele>109.73</ele>
        <time>2016-04-21T12:52:56Z</time>
      </trkpt>
      <trkpt lat="48.11126" lon="-4.18813">
        <ele>110.69</ele>
        <time>2016-04-21T12:53:03Z</time>
      </trkpt>
      <trkpt lat="48.11131" lon="-4.18811">
        <ele>111.65</ele>
        <time>2016-04-21T12:53:07Z</time>
      </trkpt>
      <trkpt lat="48.11146" lon="-4.18809">
        <ele>114.05</ele>
        <time>2016-04-21T12:53:17Z</time>
      </trkpt>
      <trkpt lat="48.1115" lon="-4.18807">
        <ele>115.01</ele>
        <time>2016-04-21T12:53:20Z</time>
      </trkpt>
      <trkpt lat="48.11153" lon="-4.18807">
        <ele>115.5</ele>
        <time>2016-04-21T12:53:23Z</time>
      </trkpt>
      <trkpt lat="48.11171" lon="-4.18803">
        <ele>117.42</ele>
        <time>2016-04-21T12:53:36Z</time>
      </trkpt>
      <trkpt lat="48.11172" lon="-4.18803">
        <ele>117.9</ele>
        <time>2016-04-21T12:53:37Z</time>
      </trkpt>
      <trkpt lat="48.11188" lon="-4.18799">
        <ele>117.42</ele>
        <time>2016-04-21T12:53:50Z</time>
      </trkpt>
      <trkpt lat="48.11194" lon="-4.18798">
        <ele>117.42</ele>
        <time>2016-04-21T12:53:54Z</time>
      </trkpt>
      <trkpt lat="48.11196" lon="-4.18797">
        <ele>116.94</ele>
        <time>2016-04-21T12:53:56Z</time>
      </trkpt>
      <trkpt lat="48.11218" lon="-4.1879">
        <ele>117.42</ele>
        <time>2016-04-21T12:54:12Z</time>
      </trkpt>
      <trkpt lat="48.11235" lon="-4.18786">
        <ele>116.94</ele>
        <time>2016-04-21T12:54:27Z</time>
      </trkpt>
      <trkpt lat="48.11248" lon="-4.18784">
        <ele>116.46</ele>
        <time>2016-04-21T12:54:37Z</time>
      </trkpt>
      <trkpt lat="48.11253" lon="-4.18782">
        <ele>115.98</ele>
        <time>2016-04-21T12:54:41Z</time>
      </trkpt>
      <trkpt lat="48.11277" lon="-4.18777">
        <ele>116.46</ele>
        <time>2016-04-21T12:54:58Z</time>
      </trkpt>
      <trkpt lat="48.11294" lon="-4.18775">
        <ele>116.94</ele>
        <time>2016-04-21T12:55:10Z</time>
      </trkpt>
      <trkpt lat="48.11312" lon="-4.1877">
        <ele>117.42</ele>
        <time>2016-04-21T12:55:24Z</time>
      </trkpt>
      <trkpt lat="48.11324" lon="-4.18768">
        <ele>118.86</ele>
        <time>2016-04-21T12:55:34Z</time>
      </trkpt>
      <trkpt lat="48.11329" lon="-4.18767">
        <ele>119.82</ele>
        <time>2016-04-21T12:55:38Z</time>
      </trkpt>
      <trkpt lat="48.11346" lon="-4.18762">
        <ele>121.26</ele>
        <time>2016-04-21T12:55:51Z</time>
      </trkpt>
      <trkpt lat="48.11366" lon="-4.18758">
        <ele>122.22</ele>
        <time>2016-04-21T12:56:06Z</time>
      </trkpt>
      <trkpt lat="48.11386" lon="-4.18753">
        <ele>122.71</ele>
        <time>2016-04-21T12:56:21Z</time>
      </trkpt>
      <trkpt lat="48.11401" lon="-4.18749">
        <ele>121.74</ele>
        <time>2016-04-21T12:56:32Z</time>
      </trkpt>
      <trkpt lat="48.11415" lon="-4.18745">
        <ele>119.82</ele>
        <time>2016-04-21T12:56:43Z</time>
      </trkpt>
      <trkpt lat="48.11435" lon="-4.1874">
        <ele>118.38</ele>
        <time>2016-04-21T12:56:59Z</time>
      </trkpt>
      <trkpt lat="48.11454" lon="-4.18735">
        <ele>118.38</ele>
        <time>2016-04-21T12:57:14Z</time>
      </trkpt>
      <trkpt lat="48.11474" lon="-4.18731">
        <ele>117.42</ele>
        <time>2016-04-21T12:57:30Z</time>
      </trkpt>
      <trkpt lat="48.11494" lon="-4.18726">
        <ele>118.86</ele>
        <time>2016-04-21T12:57:46Z</time>
      </trkpt>
      <trkpt lat="48.11516" lon="-4.1872">
        <ele>118.38</ele>
        <time>2016-04-21T12:58:03Z</time>
      </trkpt>
      <trkpt lat="48.11535" lon="-4.18716">
        <ele>117.42</ele>
        <time>2016-04-21T12:58:17Z</time>
      </trkpt>
      <trkpt lat="48.11556" lon="-4.18712">
        <ele>117.9</ele>
        <time>2016-04-21T12:58:33Z</time>
      </trkpt>
      <trkpt lat="48.11573" lon="-4.1871">
        <ele>117.42</ele>
        <time>2016-04-21T12:58:47Z</time>
      </trkpt>
      <trkpt lat="48.11595" lon="-4.18704">
        <ele>116.46</ele>
        <time>2016-04-21T12:59:04Z</time>
      </trkpt>
      <trkpt lat="48.11618" lon="-4.18698">
        <ele>115.5</ele>
        <time>2016-04-21T12:59:21Z</time>
      </trkpt>
      <trkpt lat="48.11624" lon="-4.18697">
        <ele>115.5</ele>
        <time>2016-04-21T12:59:26Z</time>
      </trkpt>
      <trkpt lat="48.11646" lon="-4.18692">
        <ele>114.05</ele>
        <time>2016-04-21T12:59:42Z</time>
      </trkpt>
      <trkpt lat="48.11664" lon="-4.1869">
        <ele>114.53</ele>
        <time>2016-04-21T12:59:57Z</time>
      </trkpt>
      <trkpt lat="48.11682" lon="-4.18685">
        <ele>113.09</ele>
        <time>2016-04-21T13:00:10Z</time>
      </trkpt>
      <trkpt lat="48.11695" lon="-4.18695">
        <ele>111.17</ele>
        <time>2016-04-21T13:00:22Z</time>
      </trkpt>
      <trkpt lat="48.11703" lon="-4.18711">
        <ele>110.21</ele>
        <time>2016-04-21T13:00:32Z</time>
      </trkpt>
      <trkpt lat="48.11715" lon="-4.18736">
        <ele>110.21</ele>
        <time>2016-04-21T13:00:47Z</time>
      </trkpt>
      <trkpt lat="48.11727" lon="-4.18758">
        <ele>110.21</ele>
        <time>2016-04-21T13:01:02Z</time>
      </trkpt>
      <trkpt lat="48.11743" lon="-4.18755">
        <ele>108.77</ele>
        <time>2016-04-21T13:01:15Z</time>
      </trkpt>
      <trkpt lat="48.11757" lon="-4.18744">
        <ele>107.32</ele>
        <time>2016-04-21T13:01:27Z</time>
      </trkpt>
      <trkpt lat="48.11769" lon="-4.18735">
        <ele>108.29</ele>
        <time>2016-04-21T13:01:37Z</time>
      </trkpt>
      <trkpt lat="48.11771" lon="-4.18733">
        <ele>108.29</ele>
        <time>2016-04-21T13:01:39Z</time>
      </trkpt>
      <trkpt lat="48.11773" lon="-4.1873">
        <ele>108.77</ele>
        <time>2016-04-21T13:01:42Z</time>
      </trkpt>
      <trkpt lat="48.11777" lon="-4.18727">
        <ele>108.29</ele>
        <time>2016-04-21T13:01:45Z</time>
      </trkpt>
      <trkpt lat="48.11783" lon="-4.18723">
        <ele>108.29</ele>
        <time>2016-04-21T13:01:51Z</time>
      </trkpt>
      <trkpt lat="48.11789" lon="-4.18716">
        <ele>108.29</ele>
        <time>2016-04-21T13:01:58Z</time>
      </trkpt>
      <trkpt lat="48.11803" lon="-4.18701">
        <ele>105.4</ele>
        <time>2016-04-21T13:02:14Z</time>
      </trkpt>
      <trkpt lat="48.11821" lon="-4.18677">
        <ele>101.56</ele>
        <time>2016-04-21T13:02:36Z</time>
      </trkpt>
      <trkpt lat="48.11842" lon="-4.18659">
        <ele>100.6</ele>
        <time>2016-04-21T13:02:53Z</time>
      </trkpt>
      <trkpt lat="48.11858" lon="-4.18642">
        <ele>100.6</ele>
        <time>2016-04-21T13:03:08Z</time>
      </trkpt>
      <trkpt lat="48.11878" lon="-4.18624">
        <ele>97.23</ele>
        <time>2016-04-21T13:03:27Z</time>
      </trkpt>
      <trkpt lat="48.11895" lon="-4.18612">
        <ele>100.11</ele>
        <time>2016-04-21T13:03:41Z</time>
      </trkpt>
      <trkpt lat="48.119" lon="-4.18607">
        <ele>101.08</ele>
        <time>2016-04-21T13:03:45Z</time>
      </trkpt>
      <trkpt lat="48.11915" lon="-4.18591">
        <ele>99.15</ele>
        <time>2016-04-21T13:04:00Z</time>
      </trkpt>
      <trkpt lat="48.11927" lon="-4.18576">
        <ele>95.79</ele>
        <time>2016-04-21T13:04:15Z</time>
      </trkpt>
      <trkpt lat="48.11942" lon="-4.18559">
        <ele>94.35</ele>
        <time>2016-04-21T13:04:29Z</time>
      </trkpt>
      <trkpt lat="48.11964" lon="-4.18537">
        <ele>95.31</ele>
        <time>2016-04-21T13:04:48Z</time>
      </trkpt>
      <trkpt lat="48.11979" lon="-4.18526">
        <ele>97.71</ele>
        <time>2016-04-21T13:04:59Z</time>
      </trkpt>
      <trkpt lat="48.11994" lon="-4.18511">
        <ele>100.11</ele>
        <time>2016-04-21T13:05:12Z</time>
      </trkpt>
      <trkpt lat="48.12013" lon="-4.18493">
        <ele>100.11</ele>
        <time>2016-04-21T13:05:31Z</time>
      </trkpt>
      <trkpt lat="48.1203" lon="-4.18478">
        <ele>100.6</ele>
        <time>2016-04-21T13:05:44Z</time>
      </trkpt>
      <trkpt lat="48.12034" lon="-4.18475">
        <ele>100.6</ele>
        <time>2016-04-21T13:05:47Z</time>
      </trkpt>
      <trkpt lat="48.12036" lon="-4.18474">
        <ele>100.11</ele>
        <time>2016-04-21T13:05:49Z</time>
      </trkpt>
      <trkpt lat="48.1205" lon="-4.18465">
        <ele>100.11</ele>
        <time>2016-04-21T13:06:01Z</time>
      </trkpt>
      <trkpt lat="48.12053" lon="-4.18458">
        <ele>101.08</ele>
        <time>2016-04-21T13:06:07Z</time>
      </trkpt>
      <trkpt lat="48.12054" lon="-4.18435">
        <ele>105.4</ele>
        <time>2016-04-21T13:06:19Z</time>
      </trkpt>
      <trkpt lat="48.12051" lon="-4.18403">
        <ele>106.36</ele>
        <time>2016-04-21T13:06:39Z</time>
      </trkpt>
      <trkpt lat="48.12048" lon="-4.1837">
        <ele>106.36</ele>
        <time>2016-04-21T13:06:53Z</time>
      </trkpt>
      <trkpt lat="48.12045" lon="-4.18347">
        <ele>104.92</ele>
        <time>2016-04-21T13:07:07Z</time>
      </trkpt>
      <trkpt lat="48.12042" lon="-4.18303">
        <ele>103.96</ele>
        <time>2016-04-21T13:07:26Z</time>
      </trkpt>
      <trkpt lat="48.12039" lon="-4.18274">
        <ele>107.81</ele>
        <time>2016-04-21T13:07:41Z</time>
      </trkpt>
      <trkpt lat="48.12037" lon="-4.18255">
        <ele>110.69</ele>
        <time>2016-04-21T13:07:50Z</time>
      </trkpt>
      <trkpt lat="48.12035" lon="-4.18246">
        <ele>111.65</ele>
        <time>2016-04-21T13:07:54Z</time>
      </trkpt>
      <trkpt lat="48.1203" lon="-4.18215">
        <ele>111.65</ele>
        <time>2016-04-21T13:08:10Z</time>
      </trkpt>
      <trkpt lat="48.12027" lon="-4.18198">
        <ele>111.17</ele>
        <time>2016-04-21T13:08:20Z</time>
      </trkpt>
      <trkpt lat="48.12011" lon="-4.18183">
        <ele>111.65</ele>
        <time>2016-04-21T13:08:34Z</time>
      </trkpt>
      <trkpt lat="48.11998" lon="-4.18178">
        <ele>110.69</ele>
        <time>2016-04-21T13:08:45Z</time>
      </trkpt>
      <trkpt lat="48.11992" lon="-4.18173">
        <ele>111.17</ele>
        <time>2016-04-21T13:08:51Z</time>
      </trkpt>
      <trkpt lat="48.1199" lon="-4.18156">
        <ele>112.61</ele>
        <time>2016-04-21T13:09:03Z</time>
      </trkpt>
      <trkpt lat="48.1199" lon="-4.18147">
        <ele>112.61</ele>
        <time>2016-04-21T13:09:08Z</time>
      </trkpt>
      <trkpt lat="48.11993" lon="-4.18121">
        <ele>109.73</ele>
        <time>2016-04-21T13:09:25Z</time>
      </trkpt>
      <trkpt lat="48.11996" lon="-4.18091">
        <ele>107.32</ele>
        <time>2016-04-21T13:09:41Z</time>
      </trkpt>
      <trkpt lat="48.12001" lon="-4.18057">
        <ele>106.84</ele>
        <time>2016-04-21T13:09:58Z</time>
      </trkpt>
      <trkpt lat="48.12005" lon="-4.18023">
        <ele>106.84</ele>
        <time>2016-04-21T13:10:16Z</time>
      </trkpt>
      <trkpt lat="48.12009" lon="-4.17992">
        <ele>107.32</ele>
        <time>2016-04-21T13:10:33Z</time>
      </trkpt>
      <trkpt lat="48.12011" lon="-4.17987">
        <ele>107.81</ele>
        <time>2016-04-21T13:10:36Z</time>
      </trkpt>
      <trkpt lat="48.12014" lon="-4.17963">
        <ele>108.77</ele>
        <time>2016-04-21T13:10:49Z</time>
      </trkpt>
      <trkpt lat="48.12016" lon="-4.17954">
        <ele>107.32</ele>
        <time>2016-04-21T13:10:54Z</time>
      </trkpt>
      <trkpt lat="48.12018" lon="-4.17936">
        <ele>103</ele>
        <time>2016-04-21T13:11:07Z</time>
      </trkpt>
      <trkpt lat="48.12018" lon="-4.17928">
        <ele>101.08</ele>
        <time>2016-04-21T13:11:12Z</time>
      </trkpt>
      <trkpt lat="48.12022" lon="-4.17902">
        <ele>101.08</ele>
        <time>2016-04-21T13:11:26Z</time>
      </trkpt>
      <trkpt lat="48.12026" lon="-4.17876">
        <ele>103.48</ele>
        <time>2016-04-21T13:11:38Z</time>
      </trkpt>
      <trkpt lat="48.1203" lon="-4.1785">
        <ele>106.36</ele>
        <time>2016-04-21T13:11:51Z</time>
      </trkpt>
      <trkpt lat="48.12032" lon="-4.17821">
        <ele>107.81</ele>
        <time>2016-04-21T13:12:05Z</time>
      </trkpt>
      <trkpt lat="48.12035" lon="-4.17792">
        <ele>107.32</ele>
        <time>2016-04-21T13:12:24Z</time>
      </trkpt>
      <trkpt lat="48.12036" lon="-4.17779">
        <ele>106.84</ele>
        <time>2016-04-21T13:12:45Z</time>
      </trkpt>
      <trkpt lat="48.12036" lon="-4.17764">
        <ele>106.36</ele>
        <time>2016-04-21T13:13:05Z</time>
      </trkpt>
      <trkpt lat="48.12036" lon="-4.17747">
        <ele>105.4</ele>
        <time>2016-04-21T13:13:26Z</time>
      </trkpt>
      <trkpt lat="48.12034" lon="-4.17733">
        <ele>104.92</ele>
        <time>2016-04-21T13:13:46Z</time>
      </trkpt>
      <trkpt lat="48.12033" lon="-4.17714">
        <ele>103.96</ele>
        <time>2016-04-21T13:14:06Z</time>
      </trkpt>
      <trkpt lat="48.12031" lon="-4.17679">
        <ele>101.56</ele>
        <time>2016-04-21T13:14:20Z</time>
      </trkpt>
      <trkpt lat="48.12034" lon="-4.17621">
        <ele>101.56</ele>
        <time>2016-04-21T13:14:35Z</time>
      </trkpt>
      <trkpt lat="48.12031" lon="-4.17564">
        <ele>95.79</ele>
        <time>2016-04-21T13:14:52Z</time>
      </trkpt>
      <trkpt lat="48.12018" lon="-4.17514">
        <ele>99.15</ele>
        <time>2016-04-21T13:15:08Z</time>
      </trkpt>
      <trkpt lat="48.12003" lon="-4.1749">
        <ele>100.6</ele>
        <time>2016-04-21T13:15:24Z</time>
      </trkpt>
      <trkpt lat="48.11988" lon="-4.17474">
        <ele>101.56</ele>
        <time>2016-04-21T13:15:36Z</time>
      </trkpt>
      <trkpt lat="48.11969" lon="-4.17465">
        <ele>103.96</ele>
        <time>2016-04-21T13:15:50Z</time>
      </trkpt>
      <trkpt lat="48.11968" lon="-4.17464">
        <ele>103.96</ele>
        <time>2016-04-21T13:15:51Z</time>
      </trkpt>
      <trkpt lat="48.1195" lon="-4.17453">
        <ele>103.96</ele>
        <time>2016-04-21T13:16:06Z</time>
      </trkpt>
      <trkpt lat="48.11941" lon="-4.1745">
        <ele>105.88</ele>
        <time>2016-04-21T13:16:19Z</time>
      </trkpt>
      <trkpt lat="48.11923" lon="-4.17434">
        <ele>106.36</ele>
        <time>2016-04-21T13:16:35Z</time>
      </trkpt>
      <trkpt lat="48.11901" lon="-4.1741">
        <ele>104.44</ele>
        <time>2016-04-21T13:16:53Z</time>
      </trkpt>
      <trkpt lat="48.11889" lon="-4.17401">
        <ele>106.36</ele>
        <time>2016-04-21T13:17:10Z</time>
      </trkpt>
      <trkpt lat="48.11881" lon="-4.17398">
        <ele>108.77</ele>
        <time>2016-04-21T13:17:24Z</time>
      </trkpt>
      <trkpt lat="48.11865" lon="-4.17387">
        <ele>109.73</ele>
        <time>2016-04-21T13:17:40Z</time>
      </trkpt>
      <trkpt lat="48.11842" lon="-4.17369">
        <ele>109.25</ele>
        <time>2016-04-21T13:17:54Z</time>
      </trkpt>
      <trkpt lat="48.11822" lon="-4.17357">
        <ele>110.21</ele>
        <time>2016-04-21T13:18:08Z</time>
      </trkpt>
      <trkpt lat="48.118" lon="-4.17342">
        <ele>111.17</ele>
        <time>2016-04-21T13:18:21Z</time>
      </trkpt>
      <trkpt lat="48.11785" lon="-4.17326">
        <ele>111.65</ele>
        <time>2016-04-21T13:18:32Z</time>
      </trkpt>
      <trkpt lat="48.11775" lon="-4.17318">
        <ele>112.61</ele>
        <time>2016-04-21T13:18:40Z</time>
      </trkpt>
      <trkpt lat="48.11766" lon="-4.17313">
        <ele>112.61</ele>
        <time>2016-04-21T13:18:49Z</time>
      </trkpt>
      <trkpt lat="48.11763" lon="-4.1731">
        <ele>112.13</ele>
        <time>2016-04-21T13:18:53Z</time>
      </trkpt>
      <trkpt lat="48.11748" lon="-4.17301">
        <ele>111.17</ele>
        <time>2016-04-21T13:19:07Z</time>
      </trkpt>
      <trkpt lat="48.11732" lon="-4.17283">
        <ele>110.69</ele>
        <time>2016-04-21T13:19:21Z</time>
      </trkpt>
      <trkpt lat="48.11715" lon="-4.17264">
        <ele>111.17</ele>
        <time>2016-04-21T13:19:36Z</time>
      </trkpt>
      <trkpt lat="48.11696" lon="-4.17246">
        <ele>111.65</ele>
        <time>2016-04-21T13:19:52Z</time>
      </trkpt>
      <trkpt lat="48.11675" lon="-4.17229">
        <ele>111.17</ele>
        <time>2016-04-21T13:20:11Z</time>
      </trkpt>
      <trkpt lat="48.11657" lon="-4.17214">
        <ele>111.65</ele>
        <time>2016-04-21T13:20:26Z</time>
      </trkpt>
      <trkpt lat="48.11641" lon="-4.17204">
        <ele>112.61</ele>
        <time>2016-04-21T13:20:41Z</time>
      </trkpt>
      <trkpt lat="48.11622" lon="-4.17192">
        <ele>111.65</ele>
        <time>2016-04-21T13:20:56Z</time>
      </trkpt>
      <trkpt lat="48.11609" lon="-4.17187">
        <ele>112.61</ele>
        <time>2016-04-21T13:21:07Z</time>
      </trkpt>
      <trkpt lat="48.11606" lon="-4.17186">
        <ele>112.61</ele>
        <time>2016-04-21T13:21:09Z</time>
      </trkpt>
      <trkpt lat="48.11577" lon="-4.17178">
        <ele>117.42</ele>
        <time>2016-04-21T13:21:31Z</time>
      </trkpt>
      <trkpt lat="48.11553" lon="-4.17172">
        <ele>123.67</ele>
        <time>2016-04-21T13:21:49Z</time>
      </trkpt>
      <trkpt lat="48.11528" lon="-4.17163">
        <ele>125.59</ele>
        <time>2016-04-21T13:22:08Z</time>
      </trkpt>
      <trkpt lat="48.11499" lon="-4.17154">
        <ele>127.03</ele>
        <time>2016-04-21T13:22:30Z</time>
      </trkpt>
      <trkpt lat="48.11481" lon="-4.17148">
        <ele>127.51</ele>
        <time>2016-04-21T13:22:46Z</time>
      </trkpt>
      <trkpt lat="48.11462" lon="-4.17133">
        <ele>127.99</ele>
        <time>2016-04-21T13:23:02Z</time>
      </trkpt>
      <trkpt lat="48.1145" lon="-4.17115">
        <ele>130.88</ele>
        <time>2016-04-21T13:23:17Z</time>
      </trkpt>
      <trkpt lat="48.11443" lon="-4.17096">
        <ele>137.13</ele>
        <time>2016-04-21T13:23:30Z</time>
      </trkpt>
      <trkpt lat="48.11435" lon="-4.17077">
        <ele>136.64</ele>
        <time>2016-04-21T13:23:42Z</time>
      </trkpt>
      <trkpt lat="48.11432" lon="-4.17071">
        <ele>136.64</ele>
        <time>2016-04-21T13:23:46Z</time>
      </trkpt>
      <trkpt lat="48.11427" lon="-4.17063">
        <ele>136.64</ele>
        <time>2016-04-21T13:23:53Z</time>
      </trkpt>
      <trkpt lat="48.11415" lon="-4.17041">
        <ele>134.24</ele>
        <time>2016-04-21T13:24:06Z</time>
      </trkpt>
      <trkpt lat="48.11413" lon="-4.17037">
        <ele>133.76</ele>
        <time>2016-04-21T13:24:09Z</time>
      </trkpt>
      <trkpt lat="48.11405" lon="-4.17021">
        <ele>132.8</ele>
        <time>2016-04-21T13:24:20Z</time>
      </trkpt>
      <trkpt lat="48.11397" lon="-4.16998">
        <ele>133.28</ele>
        <time>2016-04-21T13:24:35Z</time>
      </trkpt>
      <trkpt lat="48.11396" lon="-4.16997">
        <ele>133.28</ele>
        <time>2016-04-21T13:24:36Z</time>
      </trkpt>
      <trkpt lat="48.11391" lon="-4.16994">
        <ele>133.28</ele>
        <time>2016-04-21T13:24:40Z</time>
      </trkpt>
      <trkpt lat="48.1138" lon="-4.16998">
        <ele>131.84</ele>
        <time>2016-04-21T13:24:52Z</time>
      </trkpt>
      <trkpt lat="48.11377" lon="-4.16999">
        <ele>131.84</ele>
        <time>2016-04-21T13:24:55Z</time>
      </trkpt>
      <trkpt lat="48.11362" lon="-4.17011">
        <ele>130.88</ele>
        <time>2016-04-21T13:25:09Z</time>
      </trkpt>
      <trkpt lat="48.11355" lon="-4.17025">
        <ele>129.43</ele>
        <time>2016-04-21T13:25:19Z</time>
      </trkpt>
      <trkpt lat="48.11351" lon="-4.17033">
        <ele>130.4</ele>
        <time>2016-04-21T13:25:23Z</time>
      </trkpt>
      <trkpt lat="48.11342" lon="-4.17049">
        <ele>132.32</ele>
        <time>2016-04-21T13:25:33Z</time>
      </trkpt>
      <trkpt lat="48.11338" lon="-4.17057">
        <ele>133.28</ele>
        <time>2016-04-21T13:25:38Z</time>
      </trkpt>
      <trkpt lat="48.11335" lon="-4.17067">
        <ele>134.72</ele>
        <time>2016-04-21T13:25:43Z</time>
      </trkpt>
      <trkpt lat="48.11332" lon="-4.17073">
        <ele>135.68</ele>
        <time>2016-04-21T13:25:48Z</time>
      </trkpt>
      <trkpt lat="48.11329" lon="-4.1708">
        <ele>136.64</ele>
        <time>2016-04-21T13:25:52Z</time>
      </trkpt>
      <trkpt lat="48.11318" lon="-4.17106">
        <ele>134.24</ele>
        <time>2016-04-21T13:26:09Z</time>
      </trkpt>
      <trkpt lat="48.11317" lon="-4.17108">
        <ele>133.76</ele>
        <time>2016-04-21T13:26:10Z</time>
      </trkpt>
      <trkpt lat="48.11309" lon="-4.17123">
        <ele>134.24</ele>
        <time>2016-04-21T13:26:20Z</time>
      </trkpt>
      <trkpt lat="48.11307" lon="-4.17129">
        <ele>134.72</ele>
        <time>2016-04-21T13:26:23Z</time>
      </trkpt>
      <trkpt lat="48.113" lon="-4.17144">
        <ele>134.72</ele>
        <time>2016-04-21T13:26:32Z</time>
      </trkpt>
      <trkpt lat="48.11296" lon="-4.17152">
        <ele>132.8</ele>
        <time>2016-04-21T13:26:37Z</time>
      </trkpt>
      <trkpt lat="48.11293" lon="-4.17152">
        <ele>133.28</ele>
        <time>2016-04-21T13:26:54Z</time>
      </trkpt>
      <trkpt lat="48.11291" lon="-4.17151">
        <ele>133.28</ele>
        <time>2016-04-21T13:27:09Z</time>
      </trkpt>
      <trkpt lat="48.11284" lon="-4.17151">
        <ele>131.84</ele>
        <time>2016-04-21T13:27:14Z</time>
      </trkpt>
      <trkpt lat="48.11279" lon="-4.17146">
        <ele>131.84</ele>
        <time>2016-04-21T13:27:19Z</time>
      </trkpt>
      <trkpt lat="48.11262" lon="-4.17136">
        <ele>131.84</ele>
        <time>2016-04-21T13:27:35Z</time>
      </trkpt>
      <trkpt lat="48.11257" lon="-4.17132">
        <ele>132.8</ele>
        <time>2016-04-21T13:27:41Z</time>
      </trkpt>
      <trkpt lat="48.11249" lon="-4.17129">
        <ele>133.28</ele>
        <time>2016-04-21T13:27:47Z</time>
      </trkpt>
      <trkpt lat="48.11226" lon="-4.17117">
        <ele>134.24</ele>
        <time>2016-04-21T13:28:05Z</time>
      </trkpt>
      <trkpt lat="48.11208" lon="-4.17107">
        <ele>134.24</ele>
        <time>2016-04-21T13:28:19Z</time>
      </trkpt>
      <trkpt lat="48.11203" lon="-4.17103">
        <ele>134.72</ele>
        <time>2016-04-21T13:28:23Z</time>
      </trkpt>
      <trkpt lat="48.11198" lon="-4.171">
        <ele>135.2</ele>
        <time>2016-04-21T13:28:28Z</time>
      </trkpt>
      <trkpt lat="48.1118" lon="-4.17089">
        <ele>135.2</ele>
        <time>2016-04-21T13:28:43Z</time>
      </trkpt>
      <trkpt lat="48.11165" lon="-4.1708">
        <ele>136.64</ele>
        <time>2016-04-21T13:28:57Z</time>
      </trkpt>
      <trkpt lat="48.11146" lon="-4.17072">
        <ele>136.16</ele>
        <time>2016-04-21T13:29:12Z</time>
      </trkpt>
      <trkpt lat="48.11131" lon="-4.17062">
        <ele>135.2</ele>
        <time>2016-04-21T13:29:25Z</time>
      </trkpt>
      <trkpt lat="48.11131" lon="-4.17061">
        <ele>135.2</ele>
        <time>2016-04-21T13:29:26Z</time>
      </trkpt>
      <trkpt lat="48.11133" lon="-4.17059">
        <ele>134.72</ele>
        <time>2016-04-21T13:29:30Z</time>
      </trkpt>
      <trkpt lat="48.11134" lon="-4.1705">
        <ele>135.68</ele>
        <time>2016-04-21T13:29:41Z</time>
      </trkpt>
      <trkpt lat="48.11137" lon="-4.17024">
        <ele>134.72</ele>
        <time>2016-04-21T13:29:57Z</time>
      </trkpt>
      <trkpt lat="48.1114" lon="-4.17012">
        <ele>133.76</ele>
        <time>2016-04-21T13:30:04Z</time>
      </trkpt>
      <trkpt lat="48.1114" lon="-4.17005">
        <ele>133.76</ele>
        <time>2016-04-21T13:30:08Z</time>
      </trkpt>
      <trkpt lat="48.11145" lon="-4.16986">
        <ele>133.76</ele>
        <time>2016-04-21T13:30:22Z</time>
      </trkpt>
      <trkpt lat="48.11151" lon="-4.16959">
        <ele>132.8</ele>
        <time>2016-04-21T13:30:37Z</time>
      </trkpt>
      <trkpt lat="48.11157" lon="-4.16934">
        <ele>130.88</ele>
        <time>2016-04-21T13:30:53Z</time>
      </trkpt>
      <trkpt lat="48.11162" lon="-4.16909">
        <ele>130.4</ele>
        <time>2016-04-21T13:31:06Z</time>
      </trkpt>
      <trkpt lat="48.11169" lon="-4.16882">
        <ele>130.88</ele>
        <time>2016-04-21T13:31:21Z</time>
      </trkpt>
      <trkpt lat="48.11177" lon="-4.16851">
        <ele>128.95</ele>
        <time>2016-04-21T13:31:37Z</time>
      </trkpt>
      <trkpt lat="48.11185" lon="-4.16816">
        <ele>127.99</ele>
        <time>2016-04-21T13:31:56Z</time>
      </trkpt>
      <trkpt lat="48.11192" lon="-4.16787">
        <ele>128.95</ele>
        <time>2016-04-21T13:32:12Z</time>
      </trkpt>
      <trkpt lat="48.11195" lon="-4.16772">
        <ele>128.47</ele>
        <time>2016-04-21T13:32:22Z</time>
      </trkpt>
      <trkpt lat="48.11191" lon="-4.16763">
        <ele>128.47</ele>
        <time>2016-04-21T13:32:26Z</time>
      </trkpt>
      <trkpt lat="48.11181" lon="-4.16755">
        <ele>128.95</ele>
        <time>2016-04-21T13:32:34Z</time>
      </trkpt>
      <trkpt lat="48.11163" lon="-4.16746">
        <ele>128.47</ele>
        <time>2016-04-21T13:32:49Z</time>
      </trkpt>
      <trkpt lat="48.11147" lon="-4.16739">
        <ele>126.55</ele>
        <time>2016-04-21T13:33:02Z</time>
      </trkpt>
      <trkpt lat="48.11137" lon="-4.16732">
        <ele>125.59</ele>
        <time>2016-04-21T13:33:11Z</time>
      </trkpt>
      <trkpt lat="48.11112" lon="-4.16723">
        <ele>126.07</ele>
        <time>2016-04-21T13:33:31Z</time>
      </trkpt>
      <trkpt lat="48.11088" lon="-4.16711">
        <ele>126.55</ele>
        <time>2016-04-21T13:33:51Z</time>
      </trkpt>
      <trkpt lat="48.11062" lon="-4.16703">
        <ele>126.07</ele>
        <time>2016-04-21T13:34:11Z</time>
      </trkpt>
      <trkpt lat="48.11033" lon="-4.16689">
        <ele>126.55</ele>
        <time>2016-04-21T13:34:34Z</time>
      </trkpt>
      <trkpt lat="48.11009" lon="-4.16681">
        <ele>124.63</ele>
        <time>2016-04-21T13:34:53Z</time>
      </trkpt>
      <trkpt lat="48.10987" lon="-4.16671">
        <ele>125.11</ele>
        <time>2016-04-21T13:35:11Z</time>
      </trkpt>
      <trkpt lat="48.1096" lon="-4.16658">
        <ele>123.19</ele>
        <time>2016-04-21T13:35:32Z</time>
      </trkpt>
      <trkpt lat="48.10935" lon="-4.16649">
        <ele>119.82</ele>
        <time>2016-04-21T13:35:50Z</time>
      </trkpt>
      <trkpt lat="48.10913" lon="-4.16639">
        <ele>117.42</ele>
        <time>2016-04-21T13:36:09Z</time>
      </trkpt>
      <trkpt lat="48.1089" lon="-4.16629">
        <ele>117.9</ele>
        <time>2016-04-21T13:36:25Z</time>
      </trkpt>
      <trkpt lat="48.10877" lon="-4.16634">
        <ele>118.38</ele>
        <time>2016-04-21T13:36:41Z</time>
      </trkpt>
      <trkpt lat="48.10875" lon="-4.16647">
        <ele>119.34</ele>
        <time>2016-04-21T13:36:46Z</time>
      </trkpt>
      <trkpt lat="48.10875" lon="-4.1668">
        <ele>119.34</ele>
        <time>2016-04-21T13:37:04Z</time>
      </trkpt>
      <trkpt lat="48.10877" lon="-4.16708">
        <ele>119.82</ele>
        <time>2016-04-21T13:37:19Z</time>
      </trkpt>
      <trkpt lat="48.10879" lon="-4.16723">
        <ele>121.26</ele>
        <time>2016-04-21T13:37:27Z</time>
      </trkpt>
      <trkpt lat="48.10879" lon="-4.16735">
        <ele>123.19</ele>
        <time>2016-04-21T13:37:33Z</time>
      </trkpt>
      <trkpt lat="48.10878" lon="-4.16747">
        <ele>122.71</ele>
        <time>2016-04-21T13:37:40Z</time>
      </trkpt>
      <trkpt lat="48.10878" lon="-4.1675">
        <ele>123.19</ele>
        <time>2016-04-21T13:37:42Z</time>
      </trkpt>
      <trkpt lat="48.10878" lon="-4.16758">
        <ele>122.71</ele>
        <time>2016-04-21T13:37:46Z</time>
      </trkpt>
      <trkpt lat="48.10874" lon="-4.16779">
        <ele>121.26</ele>
        <time>2016-04-21T13:37:59Z</time>
      </trkpt>
      <trkpt lat="48.10872" lon="-4.16814">
        <ele>121.26</ele>
        <time>2016-04-21T13:38:16Z</time>
      </trkpt>
      <trkpt lat="48.1087" lon="-4.16833">
        <ele>121.74</ele>
        <time>2016-04-21T13:38:25Z</time>
      </trkpt>
      <trkpt lat="48.10868" lon="-4.16851">
        <ele>122.71</ele>
        <time>2016-04-21T13:38:35Z</time>
      </trkpt>
      <trkpt lat="48.10867" lon="-4.1686">
        <ele>122.22</ele>
        <time>2016-04-21T13:38:40Z</time>
      </trkpt>
      <trkpt lat="48.10863" lon="-4.16872">
        <ele>119.34</ele>
        <time>2016-04-21T13:38:50Z</time>
      </trkpt>
      <trkpt lat="48.1086" lon="-4.16895">
        <ele>116.94</ele>
        <time>2016-04-21T13:39:04Z</time>
      </trkpt>
      <trkpt lat="48.10844" lon="-4.16893">
        <ele>113.09</ele>
        <time>2016-04-21T13:39:23Z</time>
      </trkpt>
      <trkpt lat="48.10831" lon="-4.169">
        <ele>115.01</ele>
        <time>2016-04-21T13:39:40Z</time>
      </trkpt>
      <trkpt lat="48.10823" lon="-4.16901">
        <ele>115.5</ele>
        <time>2016-04-21T13:39:46Z</time>
      </trkpt>
      <trkpt lat="48.10805" lon="-4.16905">
        <ele>116.94</ele>
        <time>2016-04-21T13:40:03Z</time>
      </trkpt>
      <trkpt lat="48.10784" lon="-4.16908">
        <ele>119.82</ele>
        <time>2016-04-21T13:40:20Z</time>
      </trkpt>
      <trkpt lat="48.10772" lon="-4.16913">
        <ele>123.19</ele>
        <time>2016-04-21T13:40:34Z</time>
      </trkpt>
      <trkpt lat="48.10772" lon="-4.1692">
        <ele>123.19</ele>
        <time>2016-04-21T13:40:43Z</time>
      </trkpt>
      <trkpt lat="48.1077" lon="-4.16932">
        <ele>122.22</ele>
        <time>2016-04-21T13:40:55Z</time>
      </trkpt>
      <trkpt lat="48.10766" lon="-4.16949">
        <ele>121.26</ele>
        <time>2016-04-21T13:41:05Z</time>
      </trkpt>
      <trkpt lat="48.10766" lon="-4.16957">
        <ele>121.74</ele>
        <time>2016-04-21T13:41:09Z</time>
      </trkpt>
      <trkpt lat="48.10759" lon="-4.16977">
        <ele>122.71</ele>
        <time>2016-04-21T13:41:23Z</time>
      </trkpt>
      <trkpt lat="48.10757" lon="-4.1698">
        <ele>123.19</ele>
        <time>2016-04-21T13:41:25Z</time>
      </trkpt>
      <trkpt lat="48.10744" lon="-4.16986">
        <ele>127.99</ele>
        <time>2016-04-21T13:41:38Z</time>
      </trkpt>
      <trkpt lat="48.10734" lon="-4.16977">
        <ele>129.92</ele>
        <time>2016-04-21T13:41:52Z</time>
      </trkpt>
      <trkpt lat="48.10729" lon="-4.16963">
        <ele>132.8</ele>
        <time>2016-04-21T13:42:03Z</time>
      </trkpt>
      <trkpt lat="48.10728" lon="-4.16953">
        <ele>131.84</ele>
        <time>2016-04-21T13:42:14Z</time>
      </trkpt>
      <trkpt lat="48.10726" lon="-4.16946">
        <ele>128.47</ele>
        <time>2016-04-21T13:42:29Z</time>
      </trkpt>
      <trkpt lat="48.10724" lon="-4.1694">
        <ele>128.95</ele>
        <time>2016-04-21T13:42:46Z</time>
      </trkpt>
      <trkpt lat="48.10723" lon="-4.1693">
        <ele>128.95</ele>
        <time>2016-04-21T13:43:03Z</time>
      </trkpt>
      <trkpt lat="48.10725" lon="-4.16921">
        <ele>132.32</ele>
        <time>2016-04-21T13:43:13Z</time>
      </trkpt>
      <trkpt lat="48.1073" lon="-4.16917">
        <ele>135.68</ele>
        <time>2016-04-21T13:43:22Z</time>
      </trkpt>
      <trkpt lat="48.1073" lon="-4.16917">
        <ele>137.13</ele>
        <time>2016-04-21T13:43:38Z</time>
      </trkpt>
      <trkpt lat="48.10729" lon="-4.16915">
        <ele>137.61</ele>
        <time>2016-04-21T13:43:55Z</time>
      </trkpt>
      <trkpt lat="48.1073" lon="-4.16916">
        <ele>137.61</ele>
        <time>2016-04-21T13:44:10Z</time>
      </trkpt>
      <trkpt lat="48.10729" lon="-4.1691">
        <ele>139.05</ele>
        <time>2016-04-21T13:44:28Z</time>
      </trkpt>
      <trkpt lat="48.10725" lon="-4.16905">
        <ele>139.53</ele>
        <time>2016-04-21T13:44:39Z</time>
      </trkpt>
      <trkpt lat="48.10726" lon="-4.16906">
        <ele>138.57</ele>
        <time>2016-04-21T13:45:03Z</time>
      </trkpt>
      <trkpt lat="48.10729" lon="-4.1691">
        <ele>138.57</ele>
        <time>2016-04-21T13:45:17Z</time>
      </trkpt>
      <trkpt lat="48.10728" lon="-4.1691">
        <ele>139.05</ele>
        <time>2016-04-21T13:45:39Z</time>
      </trkpt>
      <trkpt lat="48.10727" lon="-4.1691">
        <ele>138.57</ele>
        <time>2016-04-21T13:46:03Z</time>
      </trkpt>
      <trkpt lat="48.10726" lon="-4.16913">
        <ele>137.61</ele>
        <time>2016-04-21T13:46:29Z</time>
      </trkpt>
      <trkpt lat="48.10726" lon="-4.16914">
        <ele>136.64</ele>
        <time>2016-04-21T13:46:53Z</time>
      </trkpt>
      <trkpt lat="48.10726" lon="-4.16914">
        <ele>137.13</ele>
        <time>2016-04-21T13:47:24Z</time>
      </trkpt>
      <trkpt lat="48.10725" lon="-4.16914">
        <ele>137.13</ele>
        <time>2016-04-21T13:47:48Z</time>
      </trkpt>
      <trkpt lat="48.10724" lon="-4.16896">
        <ele>138.09</ele>
        <time>2016-04-21T13:48:06Z</time>
      </trkpt>
      <trkpt lat="48.10724" lon="-4.16894">
        <ele>138.09</ele>
        <time>2016-04-21T13:48:24Z</time>
      </trkpt>
      <trkpt lat="48.10724" lon="-4.16894">
        <ele>138.57</ele>
        <time>2016-04-21T13:48:48Z</time>
      </trkpt>
      <trkpt lat="48.10721" lon="-4.16883">
        <ele>136.16</ele>
        <time>2016-04-21T13:49:03Z</time>
      </trkpt>
      <trkpt lat="48.1072" lon="-4.16855">
        <ele>134.24</ele>
        <time>2016-04-21T13:49:19Z</time>
      </trkpt>
      <trkpt lat="48.10717" lon="-4.16835">
        <ele>133.76</ele>
        <time>2016-04-21T13:49:28Z</time>
      </trkpt>
      <trkpt lat="48.10714" lon="-4.16823">
        <ele>132.32</ele>
        <time>2016-04-21T13:49:36Z</time>
      </trkpt>
      <trkpt lat="48.10711" lon="-4.1682">
        <ele>130.88</ele>
        <time>2016-04-21T13:49:39Z</time>
      </trkpt>
      <trkpt lat="48.10706" lon="-4.16811">
        <ele>127.51</ele>
        <time>2016-04-21T13:49:46Z</time>
      </trkpt>
      <trkpt lat="48.10706" lon="-4.16798">
        <ele>124.15</ele>
        <time>2016-04-21T13:49:59Z</time>
      </trkpt>
      <trkpt lat="48.10704" lon="-4.16787">
        <ele>123.19</ele>
        <time>2016-04-21T13:50:10Z</time>
      </trkpt>
      <trkpt lat="48.10707" lon="-4.16758">
        <ele>124.15</ele>
        <time>2016-04-21T13:50:24Z</time>
      </trkpt>
      <trkpt lat="48.10704" lon="-4.1674">
        <ele>127.03</ele>
        <time>2016-04-21T13:50:37Z</time>
      </trkpt>
      <trkpt lat="48.10702" lon="-4.16716">
        <ele>128.95</ele>
        <time>2016-04-21T13:50:52Z</time>
      </trkpt>
      <trkpt lat="48.10702" lon="-4.16705">
        <ele>129.43</ele>
        <time>2016-04-21T13:51:03Z</time>
      </trkpt>
      <trkpt lat="48.10705" lon="-4.16685">
        <ele>129.92</ele>
        <time>2016-04-21T13:51:15Z</time>
      </trkpt>
      <trkpt lat="48.10702" lon="-4.16661">
        <ele>132.32</ele>
        <time>2016-04-21T13:51:30Z</time>
      </trkpt>
      <trkpt lat="48.10702" lon="-4.16639">
        <ele>134.24</ele>
        <time>2016-04-21T13:51:44Z</time>
      </trkpt>
      <trkpt lat="48.10697" lon="-4.16621">
        <ele>134.24</ele>
        <time>2016-04-21T13:51:57Z</time>
      </trkpt>
      <trkpt lat="48.10688" lon="-4.16601">
        <ele>133.76</ele>
        <time>2016-04-21T13:52:11Z</time>
      </trkpt>
      <trkpt lat="48.10678" lon="-4.1659">
        <ele>131.84</ele>
        <time>2016-04-21T13:52:23Z</time>
      </trkpt>
      <trkpt lat="48.10666" lon="-4.16581">
        <ele>130.88</ele>
        <time>2016-04-21T13:52:38Z</time>
      </trkpt>
      <trkpt lat="48.10655" lon="-4.16572">
        <ele>131.36</ele>
        <time>2016-04-21T13:52:49Z</time>
      </trkpt>
      <trkpt lat="48.10643" lon="-4.16557">
        <ele>128.47</ele>
        <time>2016-04-21T13:53:03Z</time>
      </trkpt>
      <trkpt lat="48.10631" lon="-4.16543">
        <ele>122.71</ele>
        <time>2016-04-21T13:53:15Z</time>
      </trkpt>
      <trkpt lat="48.10623" lon="-4.16529">
        <ele>126.07</ele>
        <time>2016-04-21T13:53:27Z</time>
      </trkpt>
      <trkpt lat="48.1062" lon="-4.16525">
        <ele>126.07</ele>
        <time>2016-04-21T13:53:40Z</time>
      </trkpt>
      <trkpt lat="48.10616" lon="-4.16521">
        <ele>125.59</ele>
        <time>2016-04-21T13:53:47Z</time>
      </trkpt>
      <trkpt lat="48.10603" lon="-4.16494">
        <ele>127.51</ele>
        <time>2016-04-21T13:54:02Z</time>
      </trkpt>
      <trkpt lat="48.10595" lon="-4.16482">
        <ele>127.99</ele>
        <time>2016-04-21T13:54:16Z</time>
      </trkpt>
      <trkpt lat="48.10594" lon="-4.16467">
        <ele>127.99</ele>
        <time>2016-04-21T13:54:31Z</time>
      </trkpt>
      <trkpt lat="48.10602" lon="-4.16456">
        <ele>126.07</ele>
        <time>2016-04-21T13:54:43Z</time>
      </trkpt>
      <trkpt lat="48.10605" lon="-4.16454">
        <ele>125.59</ele>
        <time>2016-04-21T13:54:57Z</time>
      </trkpt>
      <trkpt lat="48.10612" lon="-4.16451">
        <ele>126.07</ele>
        <time>2016-04-21T13:55:04Z</time>
      </trkpt>
      <trkpt lat="48.10628" lon="-4.16449">
        <ele>128.47</ele>
        <time>2016-04-21T13:55:18Z</time>
      </trkpt>
      <trkpt lat="48.10639" lon="-4.1644">
        <ele>132.8</ele>
        <time>2016-04-21T13:55:36Z</time>
      </trkpt>
      <trkpt lat="48.10647" lon="-4.16428">
        <ele>139.53</ele>
        <time>2016-04-21T13:55:51Z</time>
      </trkpt>
      <trkpt lat="48.10654" lon="-4.16419">
        <ele>142.41</ele>
        <time>2016-04-21T13:56:05Z</time>
      </trkpt>
      <trkpt lat="48.10656" lon="-4.16415">
        <ele>144.34</ele>
        <time>2016-04-21T13:56:18Z</time>
      </trkpt>
      <trkpt lat="48.10657" lon="-4.16414">
        <ele>145.78</ele>
        <time>2016-04-21T13:56:37Z</time>
      </trkpt>
      <trkpt lat="48.10653" lon="-4.16417">
        <ele>144.34</ele>
        <time>2016-04-21T13:56:51Z</time>
      </trkpt>
      <trkpt lat="48.10654" lon="-4.16421">
        <ele>140.49</ele>
        <time>2016-04-21T13:57:02Z</time>
      </trkpt>
      <trkpt lat="48.10661" lon="-4.16436">
        <ele>138.57</ele>
        <time>2016-04-21T13:57:12Z</time>
      </trkpt>
      <trkpt lat="48.10668" lon="-4.16457">
        <ele>146.26</ele>
        <time>2016-04-21T13:57:24Z</time>
      </trkpt>
      <trkpt lat="48.10675" lon="-4.16468">
        <ele>144.34</ele>
        <time>2016-04-21T13:57:37Z</time>
      </trkpt>
      <trkpt lat="48.10685" lon="-4.16475">
        <ele>143.37</ele>
        <time>2016-04-21T13:57:45Z</time>
      </trkpt>
      <trkpt lat="48.10687" lon="-4.16475">
        <ele>142.89</ele>
        <time>2016-04-21T13:57:48Z</time>
      </trkpt>
      <trkpt lat="48.10691" lon="-4.16478">
        <ele>142.89</ele>
        <time>2016-04-21T13:57:58Z</time>
      </trkpt>
      <trkpt lat="48.10691" lon="-4.16478">
        <ele>143.37</ele>
        <time>2016-04-21T13:57:59Z</time>
      </trkpt>
      <trkpt lat="48.10694" lon="-4.16481">
        <ele>141.93</ele>
        <time>2016-04-21T13:58:02Z</time>
      </trkpt>
      <trkpt lat="48.10701" lon="-4.16487">
        <ele>138.09</ele>
        <time>2016-04-21T13:58:10Z</time>
      </trkpt>
      <trkpt lat="48.10711" lon="-4.16491">
        <ele>132.32</ele>
        <time>2016-04-21T13:58:22Z</time>
      </trkpt>
      <trkpt lat="48.10713" lon="-4.16491">
        <ele>132.32</ele>
        <time>2016-04-21T13:58:42Z</time>
      </trkpt>
      <trkpt lat="48.10715" lon="-4.16489">
        <ele>131.36</ele>
        <time>2016-04-21T13:59:05Z</time>
      </trkpt>
      <trkpt lat="48.1072" lon="-4.16491">
        <ele>131.84</ele>
        <time>2016-04-21T13:59:31Z</time>
      </trkpt>
      <trkpt lat="48.10727" lon="-4.16494">
        <ele>134.24</ele>
        <time>2016-04-21T13:59:43Z</time>
      </trkpt>
      <trkpt lat="48.10735" lon="-4.16493">
        <ele>132.8</ele>
        <time>2016-04-21T13:59:57Z</time>
      </trkpt>
      <trkpt lat="48.10743" lon="-4.16493">
        <ele>131.36</ele>
        <time>2016-04-21T14:00:10Z</time>
      </trkpt>
      <trkpt lat="48.10753" lon="-4.16486">
        <ele>128.47</ele>
        <time>2016-04-21T14:00:22Z</time>
      </trkpt>
      <trkpt lat="48.10764" lon="-4.16484">
        <ele>125.59</ele>
        <time>2016-04-21T14:00:35Z</time>
      </trkpt>
      <trkpt lat="48.10765" lon="-4.16484">
        <ele>125.11</ele>
        <time>2016-04-21T14:00:37Z</time>
      </trkpt>
      <trkpt lat="48.10805" lon="-4.16478">
        <ele>130.88</ele>
        <time>2016-04-21T14:00:51Z</time>
      </trkpt>
      <trkpt lat="48.1081" lon="-4.16481">
        <ele>130.4</ele>
        <time>2016-04-21T14:01:04Z</time>
      </trkpt>
      <trkpt lat="48.10828" lon="-4.16493">
        <ele>129.43</ele>
        <time>2016-04-21T14:01:20Z</time>
      </trkpt>
      <trkpt lat="48.10843" lon="-4.16511">
        <ele>127.51</ele>
        <time>2016-04-21T14:01:37Z</time>
      </trkpt>
      <trkpt lat="48.10854" lon="-4.16522">
        <ele>123.19</ele>
        <time>2016-04-21T14:01:52Z</time>
      </trkpt>
      <trkpt lat="48.10856" lon="-4.16522">
        <ele>123.19</ele>
        <time>2016-04-21T14:01:54Z</time>
      </trkpt>
      <trkpt lat="48.10865" lon="-4.16516">
        <ele>121.26</ele>
        <time>2016-04-21T14:02:01Z</time>
      </trkpt>
      <trkpt lat="48.10871" lon="-4.16506">
        <ele>119.82</ele>
        <time>2016-04-21T14:02:14Z</time>
      </trkpt>
      <trkpt lat="48.10877" lon="-4.16491">
        <ele>118.38</ele>
        <time>2016-04-21T14:02:25Z</time>
      </trkpt>
      <trkpt lat="48.1088" lon="-4.16481">
        <ele>117.9</ele>
        <time>2016-04-21T14:02:31Z</time>
      </trkpt>
      <trkpt lat="48.10884" lon="-4.16471">
        <ele>116.46</ele>
        <time>2016-04-21T14:02:38Z</time>
      </trkpt>
      <trkpt lat="48.10884" lon="-4.16463">
        <ele>115.98</ele>
        <time>2016-04-21T14:02:42Z</time>
      </trkpt>
      <trkpt lat="48.10886" lon="-4.16454">
        <ele>115.5</ele>
        <time>2016-04-21T14:02:47Z</time>
      </trkpt>
      <trkpt lat="48.10893" lon="-4.16435">
        <ele>116.94</ele>
        <time>2016-04-21T14:02:58Z</time>
      </trkpt>
      <trkpt lat="48.109" lon="-4.1642">
        <ele>119.82</ele>
        <time>2016-04-21T14:03:10Z</time>
      </trkpt>
      <trkpt lat="48.10902" lon="-4.16412">
        <ele>121.26</ele>
        <time>2016-04-21T14:03:16Z</time>
      </trkpt>
      <trkpt lat="48.10904" lon="-4.16396">
        <ele>121.74</ele>
        <time>2016-04-21T14:03:22Z</time>
      </trkpt>
      <trkpt lat="48.10908" lon="-4.16389">
        <ele>122.71</ele>
        <time>2016-04-21T14:03:27Z</time>
      </trkpt>
      <trkpt lat="48.10909" lon="-4.16386">
        <ele>122.71</ele>
        <time>2016-04-21T14:03:29Z</time>
      </trkpt>
      <trkpt lat="48.10911" lon="-4.16379">
        <ele>123.19</ele>
        <time>2016-04-21T14:03:33Z</time>
      </trkpt>
      <trkpt lat="48.1092" lon="-4.16348">
        <ele>125.11</ele>
        <time>2016-04-21T14:03:52Z</time>
      </trkpt>
      <trkpt lat="48.10931" lon="-4.16314">
        <ele>127.99</ele>
        <time>2016-04-21T14:04:10Z</time>
      </trkpt>
      <trkpt lat="48.10934" lon="-4.16304">
        <ele>128.47</ele>
        <time>2016-04-21T14:04:16Z</time>
      </trkpt>
      <trkpt lat="48.10939" lon="-4.16293">
        <ele>127.99</ele>
        <time>2016-04-21T14:04:23Z</time>
      </trkpt>
      <trkpt lat="48.1094" lon="-4.16288">
        <ele>127.51</ele>
        <time>2016-04-21T14:04:26Z</time>
      </trkpt>
      <trkpt lat="48.10941" lon="-4.16285">
        <ele>127.03</ele>
        <time>2016-04-21T14:04:28Z</time>
      </trkpt>
      <trkpt lat="48.10946" lon="-4.16266">
        <ele>124.63</ele>
        <time>2016-04-21T14:04:39Z</time>
      </trkpt>
      <trkpt lat="48.10948" lon="-4.16256">
        <ele>123.19</ele>
        <time>2016-04-21T14:04:45Z</time>
      </trkpt>
      <trkpt lat="48.10955" lon="-4.16228">
        <ele>120.3</ele>
        <time>2016-04-21T14:05:01Z</time>
      </trkpt>
      <trkpt lat="48.10957" lon="-4.16208">
        <ele>117.9</ele>
        <time>2016-04-21T14:05:13Z</time>
      </trkpt>
      <trkpt lat="48.10959" lon="-4.16181">
        <ele>114.05</ele>
        <time>2016-04-21T14:05:28Z</time>
      </trkpt>
      <trkpt lat="48.1096" lon="-4.16154">
        <ele>112.13</ele>
        <time>2016-04-21T14:05:42Z</time>
      </trkpt>
      <trkpt lat="48.10963" lon="-4.16132">
        <ele>109.73</ele>
        <time>2016-04-21T14:05:56Z</time>
      </trkpt>
      <trkpt lat="48.10968" lon="-4.16107">
        <ele>106.84</ele>
        <time>2016-04-21T14:06:10Z</time>
      </trkpt>
      <trkpt lat="48.1097" lon="-4.16089">
        <ele>106.36</ele>
        <time>2016-04-21T14:06:20Z</time>
      </trkpt>
      <trkpt lat="48.10977" lon="-4.16062">
        <ele>108.29</ele>
        <time>2016-04-21T14:06:35Z</time>
      </trkpt>
      <trkpt lat="48.10986" lon="-4.16032">
        <ele>108.29</ele>
        <time>2016-04-21T14:06:53Z</time>
      </trkpt>
      <trkpt lat="48.10991" lon="-4.16">
        <ele>109.25</ele>
        <time>2016-04-21T14:07:12Z</time>
      </trkpt>
      <trkpt lat="48.10997" lon="-4.15965">
        <ele>113.57</ele>
        <time>2016-04-21T14:07:28Z</time>
      </trkpt>
      <trkpt lat="48.10998" lon="-4.15953">
        <ele>114.53</ele>
        <time>2016-04-21T14:07:35Z</time>
      </trkpt>
      <trkpt lat="48.11" lon="-4.15922">
        <ele>116.46</ele>
        <time>2016-04-21T14:07:52Z</time>
      </trkpt>
      <trkpt lat="48.11001" lon="-4.15894">
        <ele>117.42</ele>
        <time>2016-04-21T14:08:08Z</time>
      </trkpt>
      <trkpt lat="48.11001" lon="-4.15864">
        <ele>119.34</ele>
        <time>2016-04-21T14:08:24Z</time>
      </trkpt>
      <trkpt lat="48.11003" lon="-4.15837">
        <ele>121.26</ele>
        <time>2016-04-21T14:08:39Z</time>
      </trkpt>
      <trkpt lat="48.11003" lon="-4.1581">
        <ele>121.74</ele>
        <time>2016-04-21T14:08:54Z</time>
      </trkpt>
      <trkpt lat="48.11004" lon="-4.15792">
        <ele>122.22</ele>
        <time>2016-04-21T14:09:04Z</time>
      </trkpt>
      <trkpt lat="48.11005" lon="-4.15764">
        <ele>122.71</ele>
        <time>2016-04-21T14:09:19Z</time>
      </trkpt>
      <trkpt lat="48.11007" lon="-4.15743">
        <ele>121.74</ele>
        <time>2016-04-21T14:09:31Z</time>
      </trkpt>
      <trkpt lat="48.11007" lon="-4.15735">
        <ele>120.78</ele>
        <time>2016-04-21T14:09:35Z</time>
      </trkpt>
      <trkpt lat="48.11008" lon="-4.15718">
        <ele>118.38</ele>
        <time>2016-04-21T14:09:45Z</time>
      </trkpt>
      <trkpt lat="48.11009" lon="-4.15694">
        <ele>116.46</ele>
        <time>2016-04-21T14:09:58Z</time>
      </trkpt>
      <trkpt lat="48.1101" lon="-4.15678">
        <ele>115.5</ele>
        <time>2016-04-21T14:10:07Z</time>
      </trkpt>
      <trkpt lat="48.11011" lon="-4.15652">
        <ele>111.65</ele>
        <time>2016-04-21T14:10:22Z</time>
      </trkpt>
      <trkpt lat="48.11012" lon="-4.1563">
        <ele>110.69</ele>
        <time>2016-04-21T14:10:34Z</time>
      </trkpt>
      <trkpt lat="48.11013" lon="-4.15605">
        <ele>109.73</ele>
        <time>2016-04-21T14:10:47Z</time>
      </trkpt>
      <trkpt lat="48.11014" lon="-4.15587">
        <ele>109.25</ele>
        <time>2016-04-21T14:10:57Z</time>
      </trkpt>
      <trkpt lat="48.11018" lon="-4.15555">
        <ele>110.69</ele>
        <time>2016-04-21T14:11:13Z</time>
      </trkpt>
      <trkpt lat="48.1102" lon="-4.15527">
        <ele>108.29</ele>
        <time>2016-04-21T14:11:29Z</time>
      </trkpt>
      <trkpt lat="48.11019" lon="-4.15518">
        <ele>107.32</ele>
        <time>2016-04-21T14:11:35Z</time>
      </trkpt>
      <trkpt lat="48.11004" lon="-4.15491">
        <ele>104.92</ele>
        <time>2016-04-21T14:11:52Z</time>
      </trkpt>
      <trkpt lat="48.10989" lon="-4.15472">
        <ele>103</ele>
        <time>2016-04-21T14:12:08Z</time>
      </trkpt>
      <trkpt lat="48.10983" lon="-4.1547">
        <ele>102.52</ele>
        <time>2016-04-21T14:12:14Z</time>
      </trkpt>
      <trkpt lat="48.10974" lon="-4.15445">
        <ele>111.65</ele>
        <time>2016-04-21T14:12:30Z</time>
      </trkpt>
      <trkpt lat="48.10968" lon="-4.15421">
        <ele>112.13</ele>
        <time>2016-04-21T14:12:44Z</time>
      </trkpt>
      <trkpt lat="48.10965" lon="-4.15414">
        <ele>111.65</ele>
        <time>2016-04-21T14:12:50Z</time>
      </trkpt>
      <trkpt lat="48.10954" lon="-4.15401">
        <ele>109.73</ele>
        <time>2016-04-21T14:13:04Z</time>
      </trkpt>
      <trkpt lat="48.10951" lon="-4.15399">
        <ele>109.25</ele>
        <time>2016-04-21T14:13:07Z</time>
      </trkpt>
      <trkpt lat="48.1094" lon="-4.15377">
        <ele>111.65</ele>
        <time>2016-04-21T14:13:22Z</time>
      </trkpt>
      <trkpt lat="48.10927" lon="-4.15356">
        <ele>111.65</ele>
        <time>2016-04-21T14:13:37Z</time>
      </trkpt>
      <trkpt lat="48.10916" lon="-4.15337">
        <ele>111.65</ele>
        <time>2016-04-21T14:13:50Z</time>
      </trkpt>
      <trkpt lat="48.10903" lon="-4.15309">
        <ele>112.61</ele>
        <time>2016-04-21T14:14:05Z</time>
      </trkpt>
      <trkpt lat="48.10894" lon="-4.15295">
        <ele>113.57</ele>
        <time>2016-04-21T14:14:17Z</time>
      </trkpt>
      <trkpt lat="48.10891" lon="-4.15291">
        <ele>113.57</ele>
        <time>2016-04-21T14:14:21Z</time>
      </trkpt>
      <trkpt lat="48.10886" lon="-4.15277">
        <ele>114.05</ele>
        <time>2016-04-21T14:14:28Z</time>
      </trkpt>
      <trkpt lat="48.10881" lon="-4.15267">
        <ele>113.57</ele>
        <time>2016-04-21T14:14:36Z</time>
      </trkpt>
      <trkpt lat="48.10875" lon="-4.15248">
        <ele>114.53</ele>
        <time>2016-04-21T14:14:49Z</time>
      </trkpt>
      <trkpt lat="48.10866" lon="-4.15233">
        <ele>113.57</ele>
        <time>2016-04-21T14:15:06Z</time>
      </trkpt>
      <trkpt lat="48.10857" lon="-4.15207">
        <ele>111.65</ele>
        <time>2016-04-21T14:15:18Z</time>
      </trkpt>
      <trkpt lat="48.10849" lon="-4.15178">
        <ele>113.09</ele>
        <time>2016-04-21T14:15:31Z</time>
      </trkpt>
      <trkpt lat="48.10842" lon="-4.15162">
        <ele>113.57</ele>
        <time>2016-04-21T14:15:42Z</time>
      </trkpt>
      <trkpt lat="48.10831" lon="-4.15139">
        <ele>112.13</ele>
        <time>2016-04-21T14:15:57Z</time>
      </trkpt>
      <trkpt lat="48.1083" lon="-4.15137">
        <ele>112.13</ele>
        <time>2016-04-21T14:15:58Z</time>
      </trkpt>
      <trkpt lat="48.10827" lon="-4.1513">
        <ele>111.65</ele>
        <time>2016-04-21T14:16:02Z</time>
      </trkpt>
      <trkpt lat="48.10817" lon="-4.15104">
        <ele>112.13</ele>
        <time>2016-04-21T14:16:16Z</time>
      </trkpt>
      <trkpt lat="48.10814" lon="-4.15101">
        <ele>111.65</ele>
        <time>2016-04-21T14:16:20Z</time>
      </trkpt>
      <trkpt lat="48.10808" lon="-4.15092">
        <ele>112.61</ele>
        <time>2016-04-21T14:16:28Z</time>
      </trkpt>
      <trkpt lat="48.10802" lon="-4.15073">
        <ele>114.05</ele>
        <time>2016-04-21T14:16:40Z</time>
      </trkpt>
      <trkpt lat="48.10794" lon="-4.15041">
        <ele>116.94</ele>
        <time>2016-04-21T14:16:54Z</time>
      </trkpt>
      <trkpt lat="48.1079" lon="-4.15019">
        <ele>118.86</ele>
        <time>2016-04-21T14:17:04Z</time>
      </trkpt>
      <trkpt lat="48.10785" lon="-4.15014">
        <ele>118.86</ele>
        <time>2016-04-21T14:17:11Z</time>
      </trkpt>
      <trkpt lat="48.10777" lon="-4.14987">
        <ele>119.34</ele>
        <time>2016-04-21T14:17:25Z</time>
      </trkpt>
      <trkpt lat="48.10776" lon="-4.14983">
        <ele>119.82</ele>
        <time>2016-04-21T14:17:28Z</time>
      </trkpt>
      <trkpt lat="48.10768" lon="-4.14968">
        <ele>118.86</ele>
        <time>2016-04-21T14:17:41Z</time>
      </trkpt>
      <trkpt lat="48.10763" lon="-4.14959">
        <ele>118.38</ele>
        <time>2016-04-21T14:17:50Z</time>
      </trkpt>
      <trkpt lat="48.10752" lon="-4.14941">
        <ele>115.98</ele>
        <time>2016-04-21T14:18:04Z</time>
      </trkpt>
      <trkpt lat="48.1074" lon="-4.14925">
        <ele>112.13</ele>
        <time>2016-04-21T14:18:20Z</time>
      </trkpt>
      <trkpt lat="48.10733" lon="-4.14917">
        <ele>110.21</ele>
        <time>2016-04-21T14:18:30Z</time>
      </trkpt>
      <trkpt lat="48.10727" lon="-4.14875">
        <ele>114.05</ele>
        <time>2016-04-21T14:18:44Z</time>
      </trkpt>
      <trkpt lat="48.10714" lon="-4.14854">
        <ele>117.42</ele>
        <time>2016-04-21T14:19:00Z</time>
      </trkpt>
      <trkpt lat="48.10707" lon="-4.14842">
        <ele>119.82</ele>
        <time>2016-04-21T14:19:13Z</time>
      </trkpt>
      <trkpt lat="48.10696" lon="-4.14832">
        <ele>122.22</ele>
        <time>2016-04-21T14:19:27Z</time>
      </trkpt>
      <trkpt lat="48.10678" lon="-4.1481">
        <ele>127.99</ele>
        <time>2016-04-21T14:19:43Z</time>
      </trkpt>
      <trkpt lat="48.10662" lon="-4.14802">
        <ele>129.92</ele>
        <time>2016-04-21T14:19:57Z</time>
      </trkpt>
      <trkpt lat="48.10656" lon="-4.14793">
        <ele>129.92</ele>
        <time>2016-04-21T14:20:11Z</time>
      </trkpt>
      <trkpt lat="48.10653" lon="-4.1479">
        <ele>129.92</ele>
        <time>2016-04-21T14:20:15Z</time>
      </trkpt>
      <trkpt lat="48.10627" lon="-4.14774">
        <ele>134.24</ele>
        <time>2016-04-21T14:20:29Z</time>
      </trkpt>
      <trkpt lat="48.10623" lon="-4.14768">
        <ele>135.68</ele>
        <time>2016-04-21T14:20:33Z</time>
      </trkpt>
      <trkpt lat="48.10621" lon="-4.14765">
        <ele>135.68</ele>
        <time>2016-04-21T14:20:35Z</time>
      </trkpt>
      <trkpt lat="48.1061" lon="-4.14743">
        <ele>139.53</ele>
        <time>2016-04-21T14:20:46Z</time>
      </trkpt>
      <trkpt lat="48.10609" lon="-4.14736">
        <ele>140.01</ele>
        <time>2016-04-21T14:20:49Z</time>
      </trkpt>
      <trkpt lat="48.106" lon="-4.14717">
        <ele>140.01</ele>
        <time>2016-04-21T14:21:04Z</time>
      </trkpt>
      <trkpt lat="48.10599" lon="-4.14716">
        <ele>140.01</ele>
        <time>2016-04-21T14:21:06Z</time>
      </trkpt>
      <trkpt lat="48.10597" lon="-4.1471">
        <ele>140.01</ele>
        <time>2016-04-21T14:21:10Z</time>
      </trkpt>
      <trkpt lat="48.10594" lon="-4.14705">
        <ele>140.49</ele>
        <time>2016-04-21T14:21:13Z</time>
      </trkpt>
      <trkpt lat="48.10582" lon="-4.14682">
        <ele>144.82</ele>
        <time>2016-04-21T14:21:30Z</time>
      </trkpt>
      <trkpt lat="48.10572" lon="-4.1466">
        <ele>149.62</ele>
        <time>2016-04-21T14:21:44Z</time>
      </trkpt>
      <trkpt lat="48.10569" lon="-4.14652">
        <ele>151.54</ele>
        <time>2016-04-21T14:21:48Z</time>
      </trkpt>
      <trkpt lat="48.10557" lon="-4.14626">
        <ele>157.31</ele>
        <time>2016-04-21T14:22:03Z</time>
      </trkpt>
      <trkpt lat="48.10555" lon="-4.14624">
        <ele>158.27</ele>
        <time>2016-04-21T14:22:05Z</time>
      </trkpt>
      <trkpt lat="48.10551" lon="-4.14616">
        <ele>159.24</ele>
        <time>2016-04-21T14:22:10Z</time>
      </trkpt>
      <trkpt lat="48.10545" lon="-4.14611">
        <ele>159.24</ele>
        <time>2016-04-21T14:22:17Z</time>
      </trkpt>
      <trkpt lat="48.10542" lon="-4.14603">
        <ele>159.24</ele>
        <time>2016-04-21T14:22:21Z</time>
      </trkpt>
      <trkpt lat="48.10532" lon="-4.14588">
        <ele>157.79</ele>
        <time>2016-04-21T14:22:33Z</time>
      </trkpt>
      <trkpt lat="48.10519" lon="-4.14568">
        <ele>160.2</ele>
        <time>2016-04-21T14:22:47Z</time>
      </trkpt>
      <trkpt lat="48.10517" lon="-4.14567">
        <ele>160.68</ele>
        <time>2016-04-21T14:22:50Z</time>
      </trkpt>
      <trkpt lat="48.1051" lon="-4.14567">
        <ele>162.6</ele>
        <time>2016-04-21T14:23:02Z</time>
      </trkpt>
      <trkpt lat="48.10508" lon="-4.14567">
        <ele>163.56</ele>
        <time>2016-04-21T14:23:11Z</time>
      </trkpt>
      <trkpt lat="48.10494" lon="-4.14576">
        <ele>164.04</ele>
        <time>2016-04-21T14:23:23Z</time>
      </trkpt>
      <trkpt lat="48.10479" lon="-4.14584">
        <ele>160.68</ele>
        <time>2016-04-21T14:23:35Z</time>
      </trkpt>
      <trkpt lat="48.10466" lon="-4.14591">
        <ele>159.24</ele>
        <time>2016-04-21T14:23:49Z</time>
      </trkpt>
      <trkpt lat="48.10457" lon="-4.14597">
        <ele>158.27</ele>
        <time>2016-04-21T14:23:56Z</time>
      </trkpt>
      <trkpt lat="48.10444" lon="-4.14616">
        <ele>158.27</ele>
        <time>2016-04-21T14:24:10Z</time>
      </trkpt>
      <trkpt lat="48.10427" lon="-4.14644">
        <ele>158.27</ele>
        <time>2016-04-21T14:24:26Z</time>
      </trkpt>
      <trkpt lat="48.10424" lon="-4.14647">
        <ele>159.24</ele>
        <time>2016-04-21T14:24:29Z</time>
      </trkpt>
      <trkpt lat="48.10407" lon="-4.14666">
        <ele>167.89</ele>
        <time>2016-04-21T14:24:44Z</time>
      </trkpt>
      <trkpt lat="48.10397" lon="-4.14683">
        <ele>168.37</ele>
        <time>2016-04-21T14:24:57Z</time>
      </trkpt>
      <trkpt lat="48.10396" lon="-4.14684">
        <ele>168.37</ele>
        <time>2016-04-21T14:24:58Z</time>
      </trkpt>
      <trkpt lat="48.10385" lon="-4.14704">
        <ele>167.89</ele>
        <time>2016-04-21T14:25:14Z</time>
      </trkpt>
      <trkpt lat="48.10376" lon="-4.14721">
        <ele>167.41</ele>
        <time>2016-04-21T14:25:27Z</time>
      </trkpt>
      <trkpt lat="48.10362" lon="-4.14736">
        <ele>169.81</ele>
        <time>2016-04-21T14:25:40Z</time>
      </trkpt>
      <trkpt lat="48.10354" lon="-4.14748">
        <ele>171.25</ele>
        <time>2016-04-21T14:25:53Z</time>
      </trkpt>
      <trkpt lat="48.1035" lon="-4.14755">
        <ele>169.81</ele>
        <time>2016-04-21T14:26:07Z</time>
      </trkpt>
      <trkpt lat="48.10342" lon="-4.14768">
        <ele>166.93</ele>
        <time>2016-04-21T14:26:19Z</time>
      </trkpt>
      <trkpt lat="48.10337" lon="-4.14778">
        <ele>165.96</ele>
        <time>2016-04-21T14:26:35Z</time>
      </trkpt>
      <trkpt lat="48.10334" lon="-4.14792">
        <ele>167.89</ele>
        <time>2016-04-21T14:26:43Z</time>
      </trkpt>
      <trkpt lat="48.10333" lon="-4.14825">
        <ele>163.56</ele>
        <time>2016-04-21T14:27:01Z</time>
      </trkpt>
      <trkpt lat="48.1033" lon="-4.14843">
        <ele>163.56</ele>
        <time>2016-04-21T14:27:17Z</time>
      </trkpt>
      <trkpt lat="48.10328" lon="-4.14866">
        <ele>163.56</ele>
        <time>2016-04-21T14:27:27Z</time>
      </trkpt>
      <trkpt lat="48.10328" lon="-4.14874">
        <ele>163.08</ele>
        <time>2016-04-21T14:27:30Z</time>
      </trkpt>
      <trkpt lat="48.10327" lon="-4.14892">
        <ele>162.6</ele>
        <time>2016-04-21T14:27:41Z</time>
      </trkpt>
      <trkpt lat="48.10322" lon="-4.14914">
        <ele>161.16</ele>
        <time>2016-04-21T14:27:53Z</time>
      </trkpt>
      <trkpt lat="48.10321" lon="-4.14944">
        <ele>159.24</ele>
        <time>2016-04-21T14:28:05Z</time>
      </trkpt>
      <trkpt lat="48.10316" lon="-4.14965">
        <ele>160.68</ele>
        <time>2016-04-21T14:28:15Z</time>
      </trkpt>
      <trkpt lat="48.10313" lon="-4.14995">
        <ele>162.12</ele>
        <time>2016-04-21T14:28:26Z</time>
      </trkpt>
      <trkpt lat="48.10309" lon="-4.15017">
        <ele>165.96</ele>
        <time>2016-04-21T14:28:40Z</time>
      </trkpt>
      <trkpt lat="48.10308" lon="-4.15031">
        <ele>170.29</ele>
        <time>2016-04-21T14:28:52Z</time>
      </trkpt>
      <trkpt lat="48.10307" lon="-4.15042">
        <ele>171.73</ele>
        <time>2016-04-21T14:29:05Z</time>
      </trkpt>
      <trkpt lat="48.10309" lon="-4.15055">
        <ele>172.69</ele>
        <time>2016-04-21T14:29:16Z</time>
      </trkpt>
      <trkpt lat="48.10308" lon="-4.15068">
        <ele>174.14</ele>
        <time>2016-04-21T14:29:30Z</time>
      </trkpt>
      <trkpt lat="48.10307" lon="-4.15084">
        <ele>175.1</ele>
        <time>2016-04-21T14:29:40Z</time>
      </trkpt>
      <trkpt lat="48.10309" lon="-4.15108">
        <ele>176.06</ele>
        <time>2016-04-21T14:29:54Z</time>
      </trkpt>
      <trkpt lat="48.10311" lon="-4.15118">
        <ele>175.58</ele>
        <time>2016-04-21T14:29:58Z</time>
      </trkpt>
      <trkpt lat="48.10309" lon="-4.15151">
        <ele>176.54</ele>
        <time>2016-04-21T14:30:13Z</time>
      </trkpt>
      <trkpt lat="48.10305" lon="-4.15179">
        <ele>176.54</ele>
        <time>2016-04-21T14:30:27Z</time>
      </trkpt>
      <trkpt lat="48.10301" lon="-4.15196">
        <ele>178.94</ele>
        <time>2016-04-21T14:30:41Z</time>
      </trkpt>
      <trkpt lat="48.10293" lon="-4.15221">
        <ele>178.46</ele>
        <time>2016-04-21T14:30:53Z</time>
      </trkpt>
      <trkpt lat="48.1029" lon="-4.15239">
        <ele>177.98</ele>
        <time>2016-04-21T14:31:03Z</time>
      </trkpt>
      <trkpt lat="48.10289" lon="-4.15252">
        <ele>179.9</ele>
        <time>2016-04-21T14:31:10Z</time>
      </trkpt>
      <trkpt lat="48.1029" lon="-4.15273">
        <ele>180.38</ele>
        <time>2016-04-21T14:31:22Z</time>
      </trkpt>
      <trkpt lat="48.10293" lon="-4.15283">
        <ele>177.98</ele>
        <time>2016-04-21T14:31:31Z</time>
      </trkpt>
      <trkpt lat="48.10295" lon="-4.15288">
        <ele>176.54</ele>
        <time>2016-04-21T14:31:34Z</time>
      </trkpt>
      <trkpt lat="48.10298" lon="-4.15312">
        <ele>169.81</ele>
        <time>2016-04-21T14:31:48Z</time>
      </trkpt>
      <trkpt lat="48.10299" lon="-4.15328">
        <ele>169.81</ele>
        <time>2016-04-21T14:32:02Z</time>
      </trkpt>
      <trkpt lat="48.10305" lon="-4.1534">
        <ele>163.08</ele>
        <time>2016-04-21T14:32:13Z</time>
      </trkpt>
      <trkpt lat="48.10312" lon="-4.15358">
        <ele>159.24</ele>
        <time>2016-04-21T14:32:27Z</time>
      </trkpt>
      <trkpt lat="48.10312" lon="-4.15382">
        <ele>161.64</ele>
        <time>2016-04-21T14:32:39Z</time>
      </trkpt>
      <trkpt lat="48.10313" lon="-4.15394">
        <ele>163.56</ele>
        <time>2016-04-21T14:32:45Z</time>
      </trkpt>
      <trkpt lat="48.10318" lon="-4.15419">
        <ele>160.2</ele>
        <time>2016-04-21T14:32:59Z</time>
      </trkpt>
      <trkpt lat="48.1032" lon="-4.15432">
        <ele>161.16</ele>
        <time>2016-04-21T14:33:11Z</time>
      </trkpt>
      <trkpt lat="48.1032" lon="-4.15447">
        <ele>165</ele>
        <time>2016-04-21T14:33:23Z</time>
      </trkpt>
      <trkpt lat="48.1032" lon="-4.1546">
        <ele>169.33</ele>
        <time>2016-04-21T14:33:37Z</time>
      </trkpt>
      <trkpt lat="48.10321" lon="-4.15479">
        <ele>167.89</ele>
        <time>2016-04-21T14:33:50Z</time>
      </trkpt>
      <trkpt lat="48.10327" lon="-4.15503">
        <ele>159.72</ele>
        <time>2016-04-21T14:34:02Z</time>
      </trkpt>
      <trkpt lat="48.10327" lon="-4.15542">
        <ele>161.16</ele>
        <time>2016-04-21T14:34:18Z</time>
      </trkpt>
      <trkpt lat="48.10326" lon="-4.15566">
        <ele>163.08</ele>
        <time>2016-04-21T14:34:32Z</time>
      </trkpt>
      <trkpt lat="48.10325" lon="-4.15585">
        <ele>161.64</ele>
        <time>2016-04-21T14:34:46Z</time>
      </trkpt>
      <trkpt lat="48.10323" lon="-4.15598">
        <ele>163.08</ele>
        <time>2016-04-21T14:35:02Z</time>
      </trkpt>
      <trkpt lat="48.10324" lon="-4.15615">
        <ele>161.16</ele>
        <time>2016-04-21T14:35:18Z</time>
      </trkpt>
      <trkpt lat="48.10322" lon="-4.15631">
        <ele>163.08</ele>
        <time>2016-04-21T14:35:33Z</time>
      </trkpt>
      <trkpt lat="48.10321" lon="-4.15643">
        <ele>164.04</ele>
        <time>2016-04-21T14:35:46Z</time>
      </trkpt>
      <trkpt lat="48.10318" lon="-4.15655">
        <ele>165</ele>
        <time>2016-04-21T14:36:00Z</time>
      </trkpt>
      <trkpt lat="48.10314" lon="-4.15669">
        <ele>167.41</ele>
        <time>2016-04-21T14:36:14Z</time>
      </trkpt>
      <trkpt lat="48.10311" lon="-4.15678">
        <ele>168.85</ele>
        <time>2016-04-21T14:36:23Z</time>
      </trkpt>
      <trkpt lat="48.10305" lon="-4.15686">
        <ele>169.33</ele>
        <time>2016-04-21T14:36:35Z</time>
      </trkpt>
      <trkpt lat="48.103" lon="-4.15695">
        <ele>170.29</ele>
        <time>2016-04-21T14:36:47Z</time>
      </trkpt>
      <trkpt lat="48.10293" lon="-4.15708">
        <ele>171.25</ele>
        <time>2016-04-21T14:37:01Z</time>
      </trkpt>
      <trkpt lat="48.10289" lon="-4.1572">
        <ele>172.69</ele>
        <time>2016-04-21T14:37:15Z</time>
      </trkpt>
      <trkpt lat="48.10286" lon="-4.15732">
        <ele>174.14</ele>
        <time>2016-04-21T14:37:29Z</time>
      </trkpt>
      <trkpt lat="48.10283" lon="-4.15748">
        <ele>174.14</ele>
        <time>2016-04-21T14:37:43Z</time>
      </trkpt>
      <trkpt lat="48.10281" lon="-4.15759">
        <ele>174.62</ele>
        <time>2016-04-21T14:37:55Z</time>
      </trkpt>
      <trkpt lat="48.10278" lon="-4.15773">
        <ele>175.1</ele>
        <time>2016-04-21T14:38:09Z</time>
      </trkpt>
      <trkpt lat="48.10277" lon="-4.15788">
        <ele>174.14</ele>
        <time>2016-04-21T14:38:22Z</time>
      </trkpt>
      <trkpt lat="48.10274" lon="-4.15803">
        <ele>175.1</ele>
        <time>2016-04-21T14:38:35Z</time>
      </trkpt>
      <trkpt lat="48.10267" lon="-4.15823">
        <ele>176.06</ele>
        <time>2016-04-21T14:38:49Z</time>
      </trkpt>
      <trkpt lat="48.10265" lon="-4.15828">
        <ele>176.06</ele>
        <time>2016-04-21T14:38:51Z</time>
      </trkpt>
      <trkpt lat="48.10251" lon="-4.15868">
        <ele>176.06</ele>
        <time>2016-04-21T14:39:04Z</time>
      </trkpt>
      <trkpt lat="48.10239" lon="-4.15906">
        <ele>175.58</ele>
        <time>2016-04-21T14:39:18Z</time>
      </trkpt>
      <trkpt lat="48.10224" lon="-4.15939">
        <ele>176.06</ele>
        <time>2016-04-21T14:39:31Z</time>
      </trkpt>
      <trkpt lat="48.10213" lon="-4.15965">
        <ele>177.02</ele>
        <time>2016-04-21T14:39:42Z</time>
      </trkpt>
      <trkpt lat="48.1021" lon="-4.15989">
        <ele>177.5</ele>
        <time>2016-04-21T14:39:59Z</time>
      </trkpt>
      <trkpt lat="48.10209" lon="-4.16024">
        <ele>178.94</ele>
        <time>2016-04-21T14:40:18Z</time>
      </trkpt>
      <trkpt lat="48.10209" lon="-4.16044">
        <ele>180.87</ele>
        <time>2016-04-21T14:40:33Z</time>
      </trkpt>
      <trkpt lat="48.10217" lon="-4.1609">
        <ele>179.42</ele>
        <time>2016-04-21T14:40:55Z</time>
      </trkpt>
      <trkpt lat="48.10221" lon="-4.16123">
        <ele>179.42</ele>
        <time>2016-04-21T14:41:14Z</time>
      </trkpt>
      <trkpt lat="48.10222" lon="-4.16132">
        <ele>183.27</ele>
        <time>2016-04-21T14:41:38Z</time>
      </trkpt>
      <trkpt lat="48.10223" lon="-4.16149">
        <ele>188.56</ele>
        <time>2016-04-21T14:41:49Z</time>
      </trkpt>
      <trkpt lat="48.10223" lon="-4.16167">
        <ele>190</ele>
        <time>2016-04-21T14:42:04Z</time>
      </trkpt>
      <trkpt lat="48.10224" lon="-4.16195">
        <ele>190.96</ele>
        <time>2016-04-21T14:42:19Z</time>
      </trkpt>
      <trkpt lat="48.10224" lon="-4.16208">
        <ele>193.84</ele>
        <time>2016-04-21T14:42:30Z</time>
      </trkpt>
      <trkpt lat="48.10225" lon="-4.16218">
        <ele>195.28</ele>
        <time>2016-04-21T14:42:44Z</time>
      </trkpt>
      <trkpt lat="48.10226" lon="-4.16229">
        <ele>196.25</ele>
        <time>2016-04-21T14:42:58Z</time>
      </trkpt>
      <trkpt lat="48.10228" lon="-4.16241">
        <ele>198.17</ele>
        <time>2016-04-21T14:43:12Z</time>
      </trkpt>
      <trkpt lat="48.10228" lon="-4.16253">
        <ele>198.65</ele>
        <time>2016-04-21T14:43:28Z</time>
      </trkpt>
      <trkpt lat="48.10226" lon="-4.16275">
        <ele>197.21</ele>
        <time>2016-04-21T14:43:41Z</time>
      </trkpt>
      <trkpt lat="48.10225" lon="-4.16295">
        <ele>198.17</ele>
        <time>2016-04-21T14:43:54Z</time>
      </trkpt>
      <trkpt lat="48.10222" lon="-4.16309">
        <ele>199.13</ele>
        <time>2016-04-21T14:44:10Z</time>
      </trkpt>
      <trkpt lat="48.10218" lon="-4.16336">
        <ele>195.28</ele>
        <time>2016-04-21T14:44:22Z</time>
      </trkpt>
      <trkpt lat="48.10217" lon="-4.16349">
        <ele>195.28</ele>
        <time>2016-04-21T14:44:27Z</time>
      </trkpt>
      <trkpt lat="48.10213" lon="-4.16378">
        <ele>190</ele>
        <time>2016-04-21T14:44:39Z</time>
      </trkpt>
      <trkpt lat="48.10212" lon="-4.16409">
        <ele>192.4</ele>
        <time>2016-04-21T14:44:48Z</time>
      </trkpt>
      <trkpt lat="48.10211" lon="-4.16458">
        <ele>191.44</ele>
        <time>2016-04-21T14:45:03Z</time>
      </trkpt>
      <trkpt lat="48.10209" lon="-4.16479">
        <ele>190.96</ele>
        <time>2016-04-21T14:45:10Z</time>
      </trkpt>
      <trkpt lat="48.10205" lon="-4.16509">
        <ele>188.08</ele>
        <time>2016-04-21T14:45:23Z</time>
      </trkpt>
      <trkpt lat="48.10203" lon="-4.16525">
        <ele>190.96</ele>
        <time>2016-04-21T14:45:39Z</time>
      </trkpt>
      <trkpt lat="48.10201" lon="-4.16544">
        <ele>193.84</ele>
        <time>2016-04-21T14:45:54Z</time>
      </trkpt>
      <trkpt lat="48.10203" lon="-4.16574">
        <ele>189.52</ele>
        <time>2016-04-21T14:46:08Z</time>
      </trkpt>
      <trkpt lat="48.10201" lon="-4.16607">
        <ele>189.52</ele>
        <time>2016-04-21T14:46:23Z</time>
      </trkpt>
      <trkpt lat="48.10198" lon="-4.16624">
        <ele>192.88</ele>
        <time>2016-04-21T14:46:37Z</time>
      </trkpt>
      <trkpt lat="48.10193" lon="-4.16639">
        <ele>195.77</ele>
        <time>2016-04-21T14:46:52Z</time>
      </trkpt>
      <trkpt lat="48.1019" lon="-4.16666">
        <ele>191.92</ele>
        <time>2016-04-21T14:47:09Z</time>
      </trkpt>
      <trkpt lat="48.10188" lon="-4.16696">
        <ele>192.88</ele>
        <time>2016-04-21T14:47:27Z</time>
      </trkpt>
      <trkpt lat="48.10189" lon="-4.16706">
        <ele>193.84</ele>
        <time>2016-04-21T14:47:34Z</time>
      </trkpt>
      <trkpt lat="48.10191" lon="-4.16738">
        <ele>184.23</ele>
        <time>2016-04-21T14:47:49Z</time>
      </trkpt>
      <trkpt lat="48.10188" lon="-4.16763">
        <ele>187.11</ele>
        <time>2016-04-21T14:48:06Z</time>
      </trkpt>
      <trkpt lat="48.10185" lon="-4.16779">
        <ele>190.48</ele>
        <time>2016-04-21T14:48:28Z</time>
      </trkpt>
      <trkpt lat="48.10184" lon="-4.16784">
        <ele>192.88</ele>
        <time>2016-04-21T14:48:55Z</time>
      </trkpt>
      <trkpt lat="48.10183" lon="-4.16791">
        <ele>193.84</ele>
        <time>2016-04-21T14:49:16Z</time>
      </trkpt>
      <trkpt lat="48.10183" lon="-4.16817">
        <ele>194.32</ele>
        <time>2016-04-21T14:49:29Z</time>
      </trkpt>
      <trkpt lat="48.10184" lon="-4.16839">
        <ele>192.88</ele>
        <time>2016-04-21T14:49:41Z</time>
      </trkpt>
      <trkpt lat="48.10182" lon="-4.16859">
        <ele>190.96</ele>
        <time>2016-04-21T14:49:54Z</time>
      </trkpt>
      <trkpt lat="48.10181" lon="-4.16879">
        <ele>188.56</ele>
        <time>2016-04-21T14:50:06Z</time>
      </trkpt>
      <trkpt lat="48.1018" lon="-4.16891">
        <ele>190.96</ele>
        <time>2016-04-21T14:50:17Z</time>
      </trkpt>
      <trkpt lat="48.10179" lon="-4.16905">
        <ele>194.32</ele>
        <time>2016-04-21T14:50:30Z</time>
      </trkpt>
      <trkpt lat="48.10176" lon="-4.16926">
        <ele>193.84</ele>
        <time>2016-04-21T14:50:43Z</time>
      </trkpt>
      <trkpt lat="48.10173" lon="-4.16944">
        <ele>192.4</ele>
        <time>2016-04-21T14:50:53Z</time>
      </trkpt>
      <trkpt lat="48.10171" lon="-4.16976">
        <ele>186.63</ele>
        <time>2016-04-21T14:51:11Z</time>
      </trkpt>
      <trkpt lat="48.10168" lon="-4.17009">
        <ele>185.67</ele>
        <time>2016-04-21T14:51:29Z</time>
      </trkpt>
      <trkpt lat="48.10167" lon="-4.17024">
        <ele>186.63</ele>
        <time>2016-04-21T14:51:47Z</time>
      </trkpt>
      <trkpt lat="48.10167" lon="-4.17038">
        <ele>186.63</ele>
        <time>2016-04-21T14:52:03Z</time>
      </trkpt>
      <trkpt lat="48.10167" lon="-4.17062">
        <ele>186.63</ele>
        <time>2016-04-21T14:52:19Z</time>
      </trkpt>
      <trkpt lat="48.10163" lon="-4.17088">
        <ele>188.08</ele>
        <time>2016-04-21T14:52:37Z</time>
      </trkpt>
      <trkpt lat="48.10161" lon="-4.17122">
        <ele>187.59</ele>
        <time>2016-04-21T14:52:53Z</time>
      </trkpt>
      <trkpt lat="48.10159" lon="-4.1716">
        <ele>188.08</ele>
        <time>2016-04-21T14:53:09Z</time>
      </trkpt>
      <trkpt lat="48.10158" lon="-4.17179">
        <ele>188.56</ele>
        <time>2016-04-21T14:53:20Z</time>
      </trkpt>
      <trkpt lat="48.10159" lon="-4.17189">
        <ele>189.04</ele>
        <time>2016-04-21T14:53:25Z</time>
      </trkpt>
      <trkpt lat="48.10158" lon="-4.17223">
        <ele>189.04</ele>
        <time>2016-04-21T14:53:38Z</time>
      </trkpt>
      <trkpt lat="48.10158" lon="-4.17243">
        <ele>190.48</ele>
        <time>2016-04-21T14:53:50Z</time>
      </trkpt>
      <trkpt lat="48.10156" lon="-4.17279">
        <ele>193.84</ele>
        <time>2016-04-21T14:54:06Z</time>
      </trkpt>
      <trkpt lat="48.10155" lon="-4.17312">
        <ele>195.77</ele>
        <time>2016-04-21T14:54:20Z</time>
      </trkpt>
      <trkpt lat="48.10155" lon="-4.17335">
        <ele>198.17</ele>
        <time>2016-04-21T14:54:32Z</time>
      </trkpt>
      <trkpt lat="48.10154" lon="-4.17365">
        <ele>199.13</ele>
        <time>2016-04-21T14:54:47Z</time>
      </trkpt>
      <trkpt lat="48.10148" lon="-4.17387">
        <ele>200.09</ele>
        <time>2016-04-21T14:55:00Z</time>
      </trkpt>
      <trkpt lat="48.1014" lon="-4.17416">
        <ele>201.05</ele>
        <time>2016-04-21T14:55:15Z</time>
      </trkpt>
      <trkpt lat="48.10131" lon="-4.17434">
        <ele>202.49</ele>
        <time>2016-04-21T14:55:31Z</time>
      </trkpt>
      <trkpt lat="48.10124" lon="-4.17456">
        <ele>204.9</ele>
        <time>2016-04-21T14:55:48Z</time>
      </trkpt>
      <trkpt lat="48.10115" lon="-4.17484">
        <ele>207.3</ele>
        <time>2016-04-21T14:56:03Z</time>
      </trkpt>
      <trkpt lat="48.10109" lon="-4.17513">
        <ele>210.19</ele>
        <time>2016-04-21T14:56:21Z</time>
      </trkpt>
      <trkpt lat="48.10099" lon="-4.17552">
        <ele>214.03</ele>
        <time>2016-04-21T14:56:37Z</time>
      </trkpt>
      <trkpt lat="48.10091" lon="-4.17581">
        <ele>217.88</ele>
        <time>2016-04-21T14:56:52Z</time>
      </trkpt>
      <trkpt lat="48.10081" lon="-4.17599">
        <ele>221.72</ele>
        <time>2016-04-21T14:57:10Z</time>
      </trkpt>
      <trkpt lat="48.10073" lon="-4.17624">
        <ele>222.2</ele>
        <time>2016-04-21T14:57:27Z</time>
      </trkpt>
      <trkpt lat="48.10056" lon="-4.17653">
        <ele>224.61</ele>
        <time>2016-04-21T14:57:39Z</time>
      </trkpt>
      <trkpt lat="48.10047" lon="-4.17671">
        <ele>229.41</ele>
        <time>2016-04-21T14:57:55Z</time>
      </trkpt>
      <trkpt lat="48.10043" lon="-4.17687">
        <ele>227.97</ele>
        <time>2016-04-21T14:58:09Z</time>
      </trkpt>
      <trkpt lat="48.10036" lon="-4.17704">
        <ele>226.53</ele>
        <time>2016-04-21T14:58:24Z</time>
      </trkpt>
      <trkpt lat="48.10029" lon="-4.17715">
        <ele>227.97</ele>
        <time>2016-04-21T14:58:36Z</time>
      </trkpt>
      <trkpt lat="48.10028" lon="-4.17716">
        <ele>227.49</ele>
        <time>2016-04-21T14:58:38Z</time>
      </trkpt>
      <trkpt lat="48.10019" lon="-4.17726">
        <ele>228.45</ele>
        <time>2016-04-21T14:58:49Z</time>
      </trkpt>
      <trkpt lat="48.10008" lon="-4.17739">
        <ele>229.89</ele>
        <time>2016-04-21T14:59:03Z</time>
      </trkpt>
      <trkpt lat="48.09999" lon="-4.1775">
        <ele>231.81</ele>
        <time>2016-04-21T14:59:17Z</time>
      </trkpt>
      <trkpt lat="48.09996" lon="-4.17756">
        <ele>232.78</ele>
        <time>2016-04-21T14:59:22Z</time>
      </trkpt>
      <trkpt lat="48.09988" lon="-4.17766">
        <ele>233.26</ele>
        <time>2016-04-21T14:59:32Z</time>
      </trkpt>
      <trkpt lat="48.09981" lon="-4.17778">
        <ele>234.7</ele>
        <time>2016-04-21T14:59:42Z</time>
      </trkpt>
      <trkpt lat="48.09977" lon="-4.17787">
        <ele>233.74</ele>
        <time>2016-04-21T14:59:58Z</time>
      </trkpt>
      <trkpt lat="48.09975" lon="-4.17799">
        <ele>233.26</ele>
        <time>2016-04-21T15:00:06Z</time>
      </trkpt>
      <trkpt lat="48.09959" lon="-4.17839">
        <ele>231.81</ele>
        <time>2016-04-21T15:00:20Z</time>
      </trkpt>
      <trkpt lat="48.09955" lon="-4.17848">
        <ele>231.81</ele>
        <time>2016-04-21T15:00:22Z</time>
      </trkpt>
      <trkpt lat="48.09938" lon="-4.17881">
        <ele>235.18</ele>
        <time>2016-04-21T15:00:36Z</time>
      </trkpt>
      <trkpt lat="48.09928" lon="-4.17899">
        <ele>238.06</ele>
        <time>2016-04-21T15:00:48Z</time>
      </trkpt>
      <trkpt lat="48.09919" lon="-4.17918">
        <ele>242.87</ele>
        <time>2016-04-21T15:01:03Z</time>
      </trkpt>
      <trkpt lat="48.09915" lon="-4.17936">
        <ele>244.79</ele>
        <time>2016-04-21T15:01:12Z</time>
      </trkpt>
      <trkpt lat="48.09912" lon="-4.17952">
        <ele>246.72</ele>
        <time>2016-04-21T15:01:19Z</time>
      </trkpt>
      <trkpt lat="48.09911" lon="-4.17967">
        <ele>246.72</ele>
        <time>2016-04-21T15:01:27Z</time>
      </trkpt>
      <trkpt lat="48.09908" lon="-4.17995">
        <ele>249.12</ele>
        <time>2016-04-21T15:01:41Z</time>
      </trkpt>
      <trkpt lat="48.09902" lon="-4.18025">
        <ele>250.08</ele>
        <time>2016-04-21T15:01:56Z</time>
      </trkpt>
      <trkpt lat="48.09887" lon="-4.18048">
        <ele>258.25</ele>
        <time>2016-04-21T15:02:08Z</time>
      </trkpt>
      <trkpt lat="48.09882" lon="-4.1805">
        <ele>262.1</ele>
        <time>2016-04-21T15:02:20Z</time>
      </trkpt>
      <trkpt lat="48.09884" lon="-4.18051">
        <ele>265.46</ele>
        <time>2016-04-21T15:02:47Z</time>
      </trkpt>
      <trkpt lat="48.09886" lon="-4.18053">
        <ele>267.86</ele>
        <time>2016-04-21T15:03:00Z</time>
      </trkpt>
      <trkpt lat="48.09887" lon="-4.18056">
        <ele>268.83</ele>
        <time>2016-04-21T15:03:12Z</time>
      </trkpt>
      <trkpt lat="48.09887" lon="-4.1806">
        <ele>269.31</ele>
        <time>2016-04-21T15:03:15Z</time>
      </trkpt>
      <trkpt lat="48.09885" lon="-4.18065">
        <ele>269.31</ele>
        <time>2016-04-21T15:03:20Z</time>
      </trkpt>
      <trkpt lat="48.09885" lon="-4.18093">
        <ele>267.38</ele>
        <time>2016-04-21T15:03:34Z</time>
      </trkpt>
      <trkpt lat="48.09883" lon="-4.18121">
        <ele>268.35</ele>
        <time>2016-04-21T15:03:50Z</time>
      </trkpt>
      <trkpt lat="48.09882" lon="-4.18138">
        <ele>268.83</ele>
        <time>2016-04-21T15:04:02Z</time>
      </trkpt>
      <trkpt lat="48.09886" lon="-4.1815">
        <ele>273.63</ele>
        <time>2016-04-21T15:04:15Z</time>
      </trkpt>
      <trkpt lat="48.09888" lon="-4.18151">
        <ele>274.59</ele>
        <time>2016-04-21T15:04:30Z</time>
      </trkpt>
      <trkpt lat="48.09888" lon="-4.18151">
        <ele>274.11</ele>
        <time>2016-04-21T15:04:52Z</time>
      </trkpt>
      <trkpt lat="48.09886" lon="-4.18159">
        <ele>272.19</ele>
        <time>2016-04-21T15:05:04Z</time>
      </trkpt>
      <trkpt lat="48.09885" lon="-4.18183">
        <ele>268.83</ele>
        <time>2016-04-21T15:05:19Z</time>
      </trkpt>
      <trkpt lat="48.09887" lon="-4.18201">
        <ele>268.35</ele>
        <time>2016-04-21T15:05:34Z</time>
      </trkpt>
      <trkpt lat="48.09888" lon="-4.18221">
        <ele>262.58</ele>
        <time>2016-04-21T15:05:50Z</time>
      </trkpt>
      <trkpt lat="48.09887" lon="-4.18252">
        <ele>256.81</ele>
        <time>2016-04-21T15:06:06Z</time>
      </trkpt>
      <trkpt lat="48.0988" lon="-4.18286">
        <ele>258.25</ele>
        <time>2016-04-21T15:06:21Z</time>
      </trkpt>
      <trkpt lat="48.09869" lon="-4.18317">
        <ele>260.17</ele>
        <time>2016-04-21T15:06:38Z</time>
      </trkpt>
      <trkpt lat="48.09861" lon="-4.18338">
        <ele>261.14</ele>
        <time>2016-04-21T15:06:54Z</time>
      </trkpt>
      <trkpt lat="48.09852" lon="-4.18363">
        <ele>260.17</ele>
        <time>2016-04-21T15:07:08Z</time>
      </trkpt>
      <trkpt lat="48.09843" lon="-4.18388">
        <ele>260.65</ele>
        <time>2016-04-21T15:07:20Z</time>
      </trkpt>
      <trkpt lat="48.09835" lon="-4.18407">
        <ele>255.85</ele>
        <time>2016-04-21T15:07:35Z</time>
      </trkpt>
      <trkpt lat="48.09828" lon="-4.18422">
        <ele>252.96</ele>
        <time>2016-04-21T15:07:44Z</time>
      </trkpt>
      <trkpt lat="48.09825" lon="-4.18431">
        <ele>254.41</ele>
        <time>2016-04-21T15:07:47Z</time>
      </trkpt>
      <trkpt lat="48.09813" lon="-4.18454">
        <ele>260.65</ele>
        <time>2016-04-21T15:08:02Z</time>
      </trkpt>
      <trkpt lat="48.09804" lon="-4.1847">
        <ele>260.65</ele>
        <time>2016-04-21T15:08:15Z</time>
      </trkpt>
      <trkpt lat="48.09803" lon="-4.18473">
        <ele>260.17</ele>
        <time>2016-04-21T15:08:17Z</time>
      </trkpt>
      <trkpt lat="48.09788" lon="-4.18493">
        <ele>257.77</ele>
        <time>2016-04-21T15:08:33Z</time>
      </trkpt>
      <trkpt lat="48.09772" lon="-4.18514">
        <ele>256.33</ele>
        <time>2016-04-21T15:08:48Z</time>
      </trkpt>
      <trkpt lat="48.09768" lon="-4.1852">
        <ele>256.81</ele>
        <time>2016-04-21T15:08:52Z</time>
      </trkpt>
      <trkpt lat="48.09754" lon="-4.18542">
        <ele>258.25</ele>
        <time>2016-04-21T15:09:08Z</time>
      </trkpt>
      <trkpt lat="48.09751" lon="-4.18548">
        <ele>258.25</ele>
        <time>2016-04-21T15:09:13Z</time>
      </trkpt>
      <trkpt lat="48.09745" lon="-4.18559">
        <ele>257.77</ele>
        <time>2016-04-21T15:09:23Z</time>
      </trkpt>
      <trkpt lat="48.09738" lon="-4.18588">
        <ele>254.89</ele>
        <time>2016-04-21T15:09:41Z</time>
      </trkpt>
      <trkpt lat="48.09727" lon="-4.18616">
        <ele>248.16</ele>
        <time>2016-04-21T15:09:58Z</time>
      </trkpt>
      <trkpt lat="48.09723" lon="-4.1864">
        <ele>244.79</ele>
        <time>2016-04-21T15:10:10Z</time>
      </trkpt>
      <trkpt lat="48.09721" lon="-4.18655">
        <ele>243.35</ele>
        <time>2016-04-21T15:10:18Z</time>
      </trkpt>
      <trkpt lat="48.09718" lon="-4.18672">
        <ele>242.39</ele>
        <time>2016-04-21T15:10:27Z</time>
      </trkpt>
      <trkpt lat="48.09718" lon="-4.18682">
        <ele>240.95</ele>
        <time>2016-04-21T15:10:33Z</time>
      </trkpt>
      <trkpt lat="48.09711" lon="-4.18701">
        <ele>239.02</ele>
        <time>2016-04-21T15:10:44Z</time>
      </trkpt>
      <trkpt lat="48.0971" lon="-4.18724">
        <ele>237.58</ele>
        <time>2016-04-21T15:10:56Z</time>
      </trkpt>
      <trkpt lat="48.0971" lon="-4.18726">
        <ele>237.58</ele>
        <time>2016-04-21T15:10:57Z</time>
      </trkpt>
      <trkpt lat="48.09711" lon="-4.18741">
        <ele>239.02</ele>
        <time>2016-04-21T15:11:05Z</time>
      </trkpt>
      <trkpt lat="48.09716" lon="-4.18768">
        <ele>240.95</ele>
        <time>2016-04-21T15:11:20Z</time>
      </trkpt>
      <trkpt lat="48.09719" lon="-4.18798">
        <ele>242.39</ele>
        <time>2016-04-21T15:11:37Z</time>
      </trkpt>
      <trkpt lat="48.0972" lon="-4.18804">
        <ele>242.39</ele>
        <time>2016-04-21T15:11:41Z</time>
      </trkpt>
      <trkpt lat="48.09719" lon="-4.18844">
        <ele>243.83</ele>
        <time>2016-04-21T15:12:02Z</time>
      </trkpt>
      <trkpt lat="48.09718" lon="-4.18873">
        <ele>244.31</ele>
        <time>2016-04-21T15:12:19Z</time>
      </trkpt>
      <trkpt lat="48.09715" lon="-4.18907">
        <ele>243.35</ele>
        <time>2016-04-21T15:12:36Z</time>
      </trkpt>
      <trkpt lat="48.09716" lon="-4.18929">
        <ele>242.39</ele>
        <time>2016-04-21T15:12:48Z</time>
      </trkpt>
      <trkpt lat="48.09716" lon="-4.18953">
        <ele>242.39</ele>
        <time>2016-04-21T15:13:01Z</time>
      </trkpt>
      <trkpt lat="48.09715" lon="-4.18972">
        <ele>241.91</ele>
        <time>2016-04-21T15:13:14Z</time>
      </trkpt>
      <trkpt lat="48.09715" lon="-4.18986">
        <ele>241.91</ele>
        <time>2016-04-21T15:13:26Z</time>
      </trkpt>
      <trkpt lat="48.09714" lon="-4.18994">
        <ele>241.91</ele>
        <time>2016-04-21T15:13:31Z</time>
      </trkpt>
      <trkpt lat="48.09713" lon="-4.19003">
        <ele>241.91</ele>
        <time>2016-04-21T15:13:36Z</time>
      </trkpt>
      <trkpt lat="48.09714" lon="-4.19026">
        <ele>242.87</ele>
        <time>2016-04-21T15:13:52Z</time>
      </trkpt>
      <trkpt lat="48.09714" lon="-4.19034">
        <ele>243.35</ele>
        <time>2016-04-21T15:13:57Z</time>
      </trkpt>
      <trkpt lat="48.09713" lon="-4.19063">
        <ele>241.91</ele>
        <time>2016-04-21T15:14:12Z</time>
      </trkpt>
      <trkpt lat="48.09713" lon="-4.19067">
        <ele>241.91</ele>
        <time>2016-04-21T15:14:14Z</time>
      </trkpt>
      <trkpt lat="48.09714" lon="-4.19098">
        <ele>240.47</ele>
        <time>2016-04-21T15:14:31Z</time>
      </trkpt>
      <trkpt lat="48.09714" lon="-4.19108">
        <ele>239.99</ele>
        <time>2016-04-21T15:14:36Z</time>
      </trkpt>
      <trkpt lat="48.09714" lon="-4.19116">
        <ele>239.51</ele>
        <time>2016-04-21T15:14:41Z</time>
      </trkpt>
      <trkpt lat="48.09713" lon="-4.19142">
        <ele>239.99</ele>
        <time>2016-04-21T15:14:55Z</time>
      </trkpt>
      <trkpt lat="48.09712" lon="-4.1917">
        <ele>237.58</ele>
        <time>2016-04-21T15:15:11Z</time>
      </trkpt>
      <trkpt lat="48.09713" lon="-4.19185">
        <ele>236.62</ele>
        <time>2016-04-21T15:15:21Z</time>
      </trkpt>
      <trkpt lat="48.09712" lon="-4.19201">
        <ele>235.18</ele>
        <time>2016-04-21T15:15:29Z</time>
      </trkpt>
      <trkpt lat="48.09713" lon="-4.19207">
        <ele>234.7</ele>
        <time>2016-04-21T15:15:33Z</time>
      </trkpt>
      <trkpt lat="48.09712" lon="-4.19234">
        <ele>233.74</ele>
        <time>2016-04-21T15:15:47Z</time>
      </trkpt>
      <trkpt lat="48.0971" lon="-4.19259">
        <ele>228.45</ele>
        <time>2016-04-21T15:16:01Z</time>
      </trkpt>
      <trkpt lat="48.09709" lon="-4.19269">
        <ele>226.05</ele>
        <time>2016-04-21T15:16:07Z</time>
      </trkpt>
      <trkpt lat="48.0971" lon="-4.19289">
        <ele>221.24</ele>
        <time>2016-04-21T15:16:22Z</time>
      </trkpt>
      <trkpt lat="48.0971" lon="-4.1929">
        <ele>220.76</ele>
        <time>2016-04-21T15:16:23Z</time>
      </trkpt>
      <trkpt lat="48.09711" lon="-4.19319">
        <ele>215.47</ele>
        <time>2016-04-21T15:16:39Z</time>
      </trkpt>
      <trkpt lat="48.09709" lon="-4.19346">
        <ele>212.59</ele>
        <time>2016-04-21T15:16:53Z</time>
      </trkpt>
      <trkpt lat="48.0971" lon="-4.19368">
        <ele>211.15</ele>
        <time>2016-04-21T15:17:06Z</time>
      </trkpt>
      <trkpt lat="48.09712" lon="-4.19374">
        <ele>210.67</ele>
        <time>2016-04-21T15:17:10Z</time>
      </trkpt>
      <trkpt lat="48.09711" lon="-4.19405">
        <ele>210.67</ele>
        <time>2016-04-21T15:17:25Z</time>
      </trkpt>
      <trkpt lat="48.09711" lon="-4.19408">
        <ele>211.15</ele>
        <time>2016-04-21T15:17:26Z</time>
      </trkpt>
      <trkpt lat="48.09711" lon="-4.19433">
        <ele>211.15</ele>
        <time>2016-04-21T15:17:41Z</time>
      </trkpt>
      <trkpt lat="48.09713" lon="-4.19455">
        <ele>210.19</ele>
        <time>2016-04-21T15:17:54Z</time>
      </trkpt>
      <trkpt lat="48.09714" lon="-4.19484">
        <ele>211.63</ele>
        <time>2016-04-21T15:18:10Z</time>
      </trkpt>
      <trkpt lat="48.0971" lon="-4.19507">
        <ele>211.15</ele>
        <time>2016-04-21T15:18:25Z</time>
      </trkpt>
      <trkpt lat="48.09707" lon="-4.19533">
        <ele>209.7</ele>
        <time>2016-04-21T15:18:42Z</time>
      </trkpt>
      <trkpt lat="48.09706" lon="-4.19557">
        <ele>208.26</ele>
        <time>2016-04-21T15:18:57Z</time>
      </trkpt>
      <trkpt lat="48.09705" lon="-4.19579">
        <ele>208.74</ele>
        <time>2016-04-21T15:19:10Z</time>
      </trkpt>
      <trkpt lat="48.09702" lon="-4.19607">
        <ele>208.74</ele>
        <time>2016-04-21T15:19:27Z</time>
      </trkpt>
      <trkpt lat="48.09702" lon="-4.19609">
        <ele>208.74</ele>
        <time>2016-04-21T15:19:29Z</time>
      </trkpt>
      <trkpt lat="48.09703" lon="-4.19621">
        <ele>208.26</ele>
        <time>2016-04-21T15:19:35Z</time>
      </trkpt>
      <trkpt lat="48.09701" lon="-4.19628">
        <ele>208.74</ele>
        <time>2016-04-21T15:19:38Z</time>
      </trkpt>
      <trkpt lat="48.09698" lon="-4.19653">
        <ele>207.3</ele>
        <time>2016-04-21T15:19:51Z</time>
      </trkpt>
      <trkpt lat="48.09694" lon="-4.19679">
        <ele>205.86</ele>
        <time>2016-04-21T15:20:04Z</time>
      </trkpt>
      <trkpt lat="48.09689" lon="-4.197">
        <ele>202.01</ele>
        <time>2016-04-21T15:20:17Z</time>
      </trkpt>
      <trkpt lat="48.09686" lon="-4.19721">
        <ele>202.98</ele>
        <time>2016-04-21T15:20:32Z</time>
      </trkpt>
      <trkpt lat="48.09683" lon="-4.1975">
        <ele>203.46</ele>
        <time>2016-04-21T15:20:46Z</time>
      </trkpt>
      <trkpt lat="48.0968" lon="-4.19781">
        <ele>203.94</ele>
        <time>2016-04-21T15:21:02Z</time>
      </trkpt>
      <trkpt lat="48.0968" lon="-4.19796">
        <ele>204.42</ele>
        <time>2016-04-21T15:21:10Z</time>
      </trkpt>
      <trkpt lat="48.09677" lon="-4.19808">
        <ele>203.46</ele>
        <time>2016-04-21T15:21:18Z</time>
      </trkpt>
      <trkpt lat="48.09676" lon="-4.19828">
        <ele>202.01</ele>
        <time>2016-04-21T15:21:30Z</time>
      </trkpt>
      <trkpt lat="48.09676" lon="-4.19829">
        <ele>201.53</ele>
        <time>2016-04-21T15:21:31Z</time>
      </trkpt>
      <trkpt lat="48.09676" lon="-4.19851">
        <ele>198.17</ele>
        <time>2016-04-21T15:21:44Z</time>
      </trkpt>
      <trkpt lat="48.09677" lon="-4.1986">
        <ele>196.73</ele>
        <time>2016-04-21T15:21:49Z</time>
      </trkpt>
      <trkpt lat="48.0968" lon="-4.19867">
        <ele>195.28</ele>
        <time>2016-04-21T15:21:53Z</time>
      </trkpt>
      <trkpt lat="48.09683" lon="-4.19879">
        <ele>187.59</ele>
        <time>2016-04-21T15:22:03Z</time>
      </trkpt>
      <trkpt lat="48.09682" lon="-4.19879">
        <ele>181.83</ele>
        <time>2016-04-21T15:22:17Z</time>
      </trkpt>
      <trkpt lat="48.09683" lon="-4.19886">
        <ele>179.9</ele>
        <time>2016-04-21T15:22:29Z</time>
      </trkpt>
      <trkpt lat="48.09684" lon="-4.19888">
        <ele>178.46</ele>
        <time>2016-04-21T15:22:37Z</time>
      </trkpt>
      <trkpt lat="48.09688" lon="-4.19901">
        <ele>176.06</ele>
        <time>2016-04-21T15:22:46Z</time>
      </trkpt>
      <trkpt lat="48.09694" lon="-4.19927">
        <ele>172.69</ele>
        <time>2016-04-21T15:23:00Z</time>
      </trkpt>
      <trkpt lat="48.09702" lon="-4.19946">
        <ele>169.81</ele>
        <time>2016-04-21T15:23:12Z</time>
      </trkpt>
      <trkpt lat="48.09708" lon="-4.19957">
        <ele>168.85</ele>
        <time>2016-04-21T15:23:21Z</time>
      </trkpt>
      <trkpt lat="48.09711" lon="-4.19963">
        <ele>168.37</ele>
        <time>2016-04-21T15:23:25Z</time>
      </trkpt>
      <trkpt lat="48.09714" lon="-4.19967">
        <ele>167.89</ele>
        <time>2016-04-21T15:23:29Z</time>
      </trkpt>
      <trkpt lat="48.09722" lon="-4.19988">
        <ele>166.45</ele>
        <time>2016-04-21T15:23:41Z</time>
      </trkpt>
      <trkpt lat="48.09728" lon="-4.20007">
        <ele>163.56</ele>
        <time>2016-04-21T15:23:55Z</time>
      </trkpt>
      <trkpt lat="48.0973" lon="-4.20009">
        <ele>163.08</ele>
        <time>2016-04-21T15:23:57Z</time>
      </trkpt>
      <trkpt lat="48.0974" lon="-4.2003">
        <ele>161.64</ele>
        <time>2016-04-21T15:24:12Z</time>
      </trkpt>
      <trkpt lat="48.09741" lon="-4.20033">
        <ele>161.64</ele>
        <time>2016-04-21T15:24:14Z</time>
      </trkpt>
      <trkpt lat="48.09745" lon="-4.20041">
        <ele>161.64</ele>
        <time>2016-04-21T15:24:20Z</time>
      </trkpt>
      <trkpt lat="48.09751" lon="-4.20061">
        <ele>163.08</ele>
        <time>2016-04-21T15:24:34Z</time>
      </trkpt>
      <trkpt lat="48.0976" lon="-4.20076">
        <ele>159.72</ele>
        <time>2016-04-21T15:24:48Z</time>
      </trkpt>
      <trkpt lat="48.09764" lon="-4.20091">
        <ele>158.27</ele>
        <time>2016-04-21T15:24:57Z</time>
      </trkpt>
      <trkpt lat="48.09775" lon="-4.20116">
        <ele>155.39</ele>
        <time>2016-04-21T15:25:12Z</time>
      </trkpt>
      <trkpt lat="48.09777" lon="-4.20118">
        <ele>154.91</ele>
        <time>2016-04-21T15:25:14Z</time>
      </trkpt>
      <trkpt lat="48.0978" lon="-4.2013">
        <ele>156.35</ele>
        <time>2016-04-21T15:25:22Z</time>
      </trkpt>
      <trkpt lat="48.09788" lon="-4.20148">
        <ele>159.72</ele>
        <time>2016-04-21T15:25:37Z</time>
      </trkpt>
      <trkpt lat="48.09789" lon="-4.20149">
        <ele>159.72</ele>
        <time>2016-04-21T15:25:38Z</time>
      </trkpt>
      <trkpt lat="48.098" lon="-4.20171">
        <ele>159.72</ele>
        <time>2016-04-21T15:25:53Z</time>
      </trkpt>
      <trkpt lat="48.09804" lon="-4.20178">
        <ele>159.72</ele>
        <time>2016-04-21T15:25:57Z</time>
      </trkpt>
      <trkpt lat="48.0981" lon="-4.20203">
        <ele>161.64</ele>
        <time>2016-04-21T15:26:09Z</time>
      </trkpt>
      <trkpt lat="48.09821" lon="-4.20223">
        <ele>165</ele>
        <time>2016-04-21T15:26:23Z</time>
      </trkpt>
      <trkpt lat="48.09822" lon="-4.20233">
        <ele>165.48</ele>
        <time>2016-04-21T15:26:28Z</time>
      </trkpt>
      <trkpt lat="48.09831" lon="-4.20259">
        <ele>165.48</ele>
        <time>2016-04-21T15:26:44Z</time>
      </trkpt>
      <trkpt lat="48.09839" lon="-4.20283">
        <ele>165</ele>
        <time>2016-04-21T15:26:58Z</time>
      </trkpt>
      <trkpt lat="48.09844" lon="-4.20301">
        <ele>161.64</ele>
        <time>2016-04-21T15:27:09Z</time>
      </trkpt>
      <trkpt lat="48.09851" lon="-4.20322">
        <ele>158.27</ele>
        <time>2016-04-21T15:27:21Z</time>
      </trkpt>
      <trkpt lat="48.09855" lon="-4.20335">
        <ele>155.87</ele>
        <time>2016-04-21T15:27:29Z</time>
      </trkpt>
      <trkpt lat="48.09863" lon="-4.20356">
        <ele>148.18</ele>
        <time>2016-04-21T15:27:45Z</time>
      </trkpt>
      <trkpt lat="48.09868" lon="-4.20383">
        <ele>144.82</ele>
        <time>2016-04-21T15:27:58Z</time>
      </trkpt>
      <trkpt lat="48.09869" lon="-4.20398">
        <ele>140.49</ele>
        <time>2016-04-21T15:28:09Z</time>
      </trkpt>
      <trkpt lat="48.09875" lon="-4.20419">
        <ele>133.28</ele>
        <time>2016-04-21T15:28:24Z</time>
      </trkpt>
      <trkpt lat="48.09874" lon="-4.20431">
        <ele>131.36</ele>
        <time>2016-04-21T15:28:31Z</time>
      </trkpt>
      <trkpt lat="48.0988" lon="-4.20458">
        <ele>133.28</ele>
        <time>2016-04-21T15:28:44Z</time>
      </trkpt>
      <trkpt lat="48.09881" lon="-4.20465">
        <ele>134.72</ele>
        <time>2016-04-21T15:28:47Z</time>
      </trkpt>
      <trkpt lat="48.09879" lon="-4.20495">
        <ele>134.72</ele>
        <time>2016-04-21T15:29:03Z</time>
      </trkpt>
      <trkpt lat="48.09877" lon="-4.20519">
        <ele>136.64</ele>
        <time>2016-04-21T15:29:16Z</time>
      </trkpt>
      <trkpt lat="48.09875" lon="-4.20541">
        <ele>137.61</ele>
        <time>2016-04-21T15:29:28Z</time>
      </trkpt>
      <trkpt lat="48.09874" lon="-4.2055">
        <ele>137.61</ele>
        <time>2016-04-21T15:29:33Z</time>
      </trkpt>
      <trkpt lat="48.09873" lon="-4.20554">
        <ele>138.09</ele>
        <time>2016-04-21T15:29:35Z</time>
      </trkpt>
      <trkpt lat="48.09869" lon="-4.20578">
        <ele>137.13</ele>
        <time>2016-04-21T15:29:50Z</time>
      </trkpt>
      <trkpt lat="48.09869" lon="-4.20579">
        <ele>137.13</ele>
        <time>2016-04-21T15:29:51Z</time>
      </trkpt>
      <trkpt lat="48.09867" lon="-4.20591">
        <ele>136.64</ele>
        <time>2016-04-21T15:30:02Z</time>
      </trkpt>
      <trkpt lat="48.09865" lon="-4.20613">
        <ele>135.2</ele>
        <time>2016-04-21T15:30:15Z</time>
      </trkpt>
      <trkpt lat="48.09862" lon="-4.2064">
        <ele>134.24</ele>
        <time>2016-04-21T15:30:30Z</time>
      </trkpt>
      <trkpt lat="48.09856" lon="-4.20668">
        <ele>133.76</ele>
        <time>2016-04-21T15:30:46Z</time>
      </trkpt>
      <trkpt lat="48.09854" lon="-4.20684">
        <ele>133.76</ele>
        <time>2016-04-21T15:30:58Z</time>
      </trkpt>
      <trkpt lat="48.09851" lon="-4.20698">
        <ele>136.16</ele>
        <time>2016-04-21T15:31:09Z</time>
      </trkpt>
      <trkpt lat="48.09848" lon="-4.20713">
        <ele>137.13</ele>
        <time>2016-04-21T15:31:21Z</time>
      </trkpt>
      <trkpt lat="48.0985" lon="-4.20727">
        <ele>140.01</ele>
        <time>2016-04-21T15:31:31Z</time>
      </trkpt>
      <trkpt lat="48.09845" lon="-4.20759">
        <ele>144.82</ele>
        <time>2016-04-21T15:31:48Z</time>
      </trkpt>
      <trkpt lat="48.09844" lon="-4.20766">
        <ele>145.3</ele>
        <time>2016-04-21T15:31:51Z</time>
      </trkpt>
      <trkpt lat="48.09844" lon="-4.2078">
        <ele>146.26</ele>
        <time>2016-04-21T15:32:02Z</time>
      </trkpt>
      <trkpt lat="48.09844" lon="-4.20791">
        <ele>148.18</ele>
        <time>2016-04-21T15:32:13Z</time>
      </trkpt>
      <trkpt lat="48.09842" lon="-4.20797">
        <ele>148.18</ele>
        <time>2016-04-21T15:32:18Z</time>
      </trkpt>
      <trkpt lat="48.09837" lon="-4.20816">
        <ele>143.37</ele>
        <time>2016-04-21T15:32:31Z</time>
      </trkpt>
      <trkpt lat="48.09836" lon="-4.20821">
        <ele>141.93</ele>
        <time>2016-04-21T15:32:35Z</time>
      </trkpt>
      <trkpt lat="48.09831" lon="-4.20838">
        <ele>141.93</ele>
        <time>2016-04-21T15:32:43Z</time>
      </trkpt>
      <trkpt lat="48.09824" lon="-4.20848">
        <ele>144.34</ele>
        <time>2016-04-21T15:32:55Z</time>
      </trkpt>
      <trkpt lat="48.09822" lon="-4.20848">
        <ele>144.82</ele>
        <time>2016-04-21T15:32:58Z</time>
      </trkpt>
      <trkpt lat="48.09822" lon="-4.20853">
        <ele>145.3</ele>
        <time>2016-04-21T15:33:12Z</time>
      </trkpt>
      <trkpt lat="48.09819" lon="-4.20865">
        <ele>143.85</ele>
        <time>2016-04-21T15:33:25Z</time>
      </trkpt>
      <trkpt lat="48.09816" lon="-4.20875">
        <ele>140.97</ele>
        <time>2016-04-21T15:33:36Z</time>
      </trkpt>
      <trkpt lat="48.09815" lon="-4.20893">
        <ele>137.61</ele>
        <time>2016-04-21T15:33:48Z</time>
      </trkpt>
      <trkpt lat="48.09812" lon="-4.20904">
        <ele>136.16</ele>
        <time>2016-04-21T15:33:58Z</time>
      </trkpt>
      <trkpt lat="48.09811" lon="-4.20919">
        <ele>137.61</ele>
        <time>2016-04-21T15:34:06Z</time>
      </trkpt>
      <trkpt lat="48.0981" lon="-4.20935">
        <ele>140.01</ele>
        <time>2016-04-21T15:34:15Z</time>
      </trkpt>
      <trkpt lat="48.09809" lon="-4.20945">
        <ele>140.97</ele>
        <time>2016-04-21T15:34:22Z</time>
      </trkpt>
      <trkpt lat="48.09808" lon="-4.20954">
        <ele>141.45</ele>
        <time>2016-04-21T15:34:26Z</time>
      </trkpt>
      <trkpt lat="48.09807" lon="-4.2096">
        <ele>141.93</ele>
        <time>2016-04-21T15:34:30Z</time>
      </trkpt>
      <trkpt lat="48.09805" lon="-4.20984">
        <ele>144.34</ele>
        <time>2016-04-21T15:34:44Z</time>
      </trkpt>
      <trkpt lat="48.098" lon="-4.21006">
        <ele>145.3</ele>
        <time>2016-04-21T15:34:57Z</time>
      </trkpt>
      <trkpt lat="48.09799" lon="-4.21019">
        <ele>145.3</ele>
        <time>2016-04-21T15:35:06Z</time>
      </trkpt>
      <trkpt lat="48.09796" lon="-4.21046">
        <ele>145.3</ele>
        <time>2016-04-21T15:35:21Z</time>
      </trkpt>
      <trkpt lat="48.09794" lon="-4.21072">
        <ele>146.26</ele>
        <time>2016-04-21T15:35:34Z</time>
      </trkpt>
      <trkpt lat="48.09793" lon="-4.21078">
        <ele>146.26</ele>
        <time>2016-04-21T15:35:37Z</time>
      </trkpt>
      <trkpt lat="48.09789" lon="-4.21097">
        <ele>147.22</ele>
        <time>2016-04-21T15:35:49Z</time>
      </trkpt>
      <trkpt lat="48.09786" lon="-4.211">
        <ele>147.7</ele>
        <time>2016-04-21T15:35:53Z</time>
      </trkpt>
      <trkpt lat="48.09781" lon="-4.21109">
        <ele>146.74</ele>
        <time>2016-04-21T15:36:01Z</time>
      </trkpt>
      <trkpt lat="48.09778" lon="-4.21129">
        <ele>145.78</ele>
        <time>2016-04-21T15:36:13Z</time>
      </trkpt>
      <trkpt lat="48.09777" lon="-4.21136">
        <ele>145.78</ele>
        <time>2016-04-21T15:36:16Z</time>
      </trkpt>
      <trkpt lat="48.09776" lon="-4.21142">
        <ele>146.74</ele>
        <time>2016-04-21T15:36:20Z</time>
      </trkpt>
      <trkpt lat="48.09773" lon="-4.21149">
        <ele>146.74</ele>
        <time>2016-04-21T15:36:24Z</time>
      </trkpt>
      <trkpt lat="48.09769" lon="-4.21169">
        <ele>150.1</ele>
        <time>2016-04-21T15:36:36Z</time>
      </trkpt>
      <trkpt lat="48.09764" lon="-4.21185">
        <ele>150.58</ele>
        <time>2016-04-21T15:36:47Z</time>
      </trkpt>
      <trkpt lat="48.09756" lon="-4.212">
        <ele>152.51</ele>
        <time>2016-04-21T15:36:58Z</time>
      </trkpt>
      <trkpt lat="48.09753" lon="-4.21205">
        <ele>153.47</ele>
        <time>2016-04-21T15:37:02Z</time>
      </trkpt>
      <trkpt lat="48.09747" lon="-4.21223">
        <ele>155.39</ele>
        <time>2016-04-21T15:37:15Z</time>
      </trkpt>
      <trkpt lat="48.09749" lon="-4.21227">
        <ele>155.39</ele>
        <time>2016-04-21T15:37:18Z</time>
      </trkpt>
      <trkpt lat="48.09754" lon="-4.21244">
        <ele>152.51</ele>
        <time>2016-04-21T15:37:33Z</time>
      </trkpt>
      <trkpt lat="48.09759" lon="-4.21258">
        <ele>151.06</ele>
        <time>2016-04-21T15:37:47Z</time>
      </trkpt>
      <trkpt lat="48.09762" lon="-4.21262">
        <ele>151.54</ele>
        <time>2016-04-21T15:37:50Z</time>
      </trkpt>
      <trkpt lat="48.09766" lon="-4.21274">
        <ele>152.51</ele>
        <time>2016-04-21T15:38:05Z</time>
      </trkpt>
      <trkpt lat="48.09767" lon="-4.21274">
        <ele>153.47</ele>
        <time>2016-04-21T15:38:25Z</time>
      </trkpt>
      <trkpt lat="48.09767" lon="-4.21273">
        <ele>154.91</ele>
        <time>2016-04-21T15:38:41Z</time>
      </trkpt>
      <trkpt lat="48.09766" lon="-4.21274">
        <ele>155.39</ele>
        <time>2016-04-21T15:38:56Z</time>
      </trkpt>
      <trkpt lat="48.09767" lon="-4.21272">
        <ele>155.87</ele>
        <time>2016-04-21T15:39:17Z</time>
      </trkpt>
      <trkpt lat="48.09767" lon="-4.21272">
        <ele>156.35</ele>
        <time>2016-04-21T15:39:32Z</time>
      </trkpt>
      <trkpt lat="48.09767" lon="-4.21272">
        <ele>156.83</ele>
        <time>2016-04-21T15:39:52Z</time>
      </trkpt>
      <trkpt lat="48.09767" lon="-4.21272">
        <ele>155.87</ele>
        <time>2016-04-21T15:40:03Z</time>
      </trkpt>
      <trkpt lat="48.09767" lon="-4.21272">
        <ele>156.35</ele>
        <time>2016-04-21T15:40:18Z</time>
      </trkpt>
      <trkpt lat="48.09767" lon="-4.21273">
        <ele>156.35</ele>
        <time>2016-04-21T15:40:36Z</time>
      </trkpt>
      <trkpt lat="48.09766" lon="-4.21273">
        <ele>156.83</ele>
        <time>2016-04-21T15:40:51Z</time>
      </trkpt>
      <trkpt lat="48.09767" lon="-4.21273">
        <ele>157.79</ele>
        <time>2016-04-21T15:41:02Z</time>
      </trkpt>
      <trkpt lat="48.09767" lon="-4.21273">
        <ele>157.31</ele>
        <time>2016-04-21T15:41:16Z</time>
      </trkpt>
      <trkpt lat="48.09767" lon="-4.21274">
        <ele>157.79</ele>
        <time>2016-04-21T15:41:30Z</time>
      </trkpt>
      <trkpt lat="48.09768" lon="-4.21274">
        <ele>156.83</ele>
        <time>2016-04-21T15:41:52Z</time>
      </trkpt>
      <trkpt lat="48.09768" lon="-4.21273">
        <ele>156.35</ele>
        <time>2016-04-21T15:42:20Z</time>
      </trkpt>
      <trkpt lat="48.09768" lon="-4.21272">
        <ele>157.31</ele>
        <time>2016-04-21T15:42:28Z</time>
      </trkpt>
    </trkseg>
  </trk>
</gpx>